Observation data for Tahoka on 04/16/2021      Previous  Date  Next       Current Mesonet Observations  Soil Data  Daily Summary Page  Observations in Plain Language
KTAS 160500Z 10007KT 09/09 A2987 RMK A01 T00880087  RH  099%=      5-min Rain = 0
KTAS 160501Z 09007KT 09/09 A2987 RMK A01 T00880087  RH  099%=      5-min Rain = 0
KTAS 160502Z 09007KT 09/09 A2987 RMK A01 T00880087  RH  099%=      5-min Rain = 0
KTAS 160503Z 09006KT 09/09 A2987 RMK A01 T00880087  RH  099%=      5-min Rain = 0
KTAS 160504Z 09006KT 09/09 A2987 RMK A01 T00880087  RH  100%=      5-min Rain = 0
KTAS 160505Z 09006KT 09/09 A2987 RMK A01 T00880087  RH  100%=      5-min Rain = 0
KTAS 160506Z 09006KT 09/09 A2987 RMK A01 T00880087  RH  100%=      5-min Rain = 0
KTAS 160507Z 09006KT 09/09 A2988 RMK A01 T00880087  RH  100%=      5-min Rain = 0
KTAS 160508Z 09006KT 09/09 A2988 RMK A01 T00880088  RH  099%=      5-min Rain = 0
KTAS 160509Z 09006KT 09/09 A2988 RMK A01 T00890088  RH  099%=      5-min Rain = 0
KTAS 160510Z 08006KT 09/09 A2988 RMK A01 T00890088  RH  099%=      5-min Rain = 0
KTAS 160511Z 08007KT 09/09 A2988 RMK A01 T00890088  RH  099%=      5-min Rain = 0
KTAS 160512Z 08008KT 09/09 A2988 RMK A01 T00880087  RH  099%=      5-min Rain = 0
KTAS 160513Z 08008KT 09/09 A2988 RMK A01 T00880087  RH  100%=      5-min Rain = 0
KTAS 160514Z 09007KT 09/09 A2988 RMK A01 T00880087  RH  099%=      5-min Rain = 0
KTAS 160515Z 09008KT 09/09 A2988 RMK A01 T00880088  RH  100%=      5-min Rain = 0
KTAS 160516Z 09008KT 09/09 A2988 RMK A01 T00880087  RH  100%=      5-min Rain = 0
KTAS 160517Z 08006KT 09/09 A2988 RMK A01 T00880087  RH  100%=      5-min Rain = 0
KTAS 160518Z 09006KT 09/09 A2988 RMK A01 T00890088  RH  100%=      5-min Rain = 0
KTAS 160519Z 08007KT 09/09 A2988 RMK A01 T00890088  RH  100%=      5-min Rain = 0
KTAS 160520Z 09008KT 09/09 A2988 RMK A01 T00890088  RH  100%=      5-min Rain = 0
KTAS 160521Z 08009KT 09/09 A2988 RMK A01 T00890088  RH  100%=      5-min Rain = 0
KTAS 160522Z 08009KT 09/09 A2988 RMK A01 T00880088  RH  100%=      5-min Rain = 0
KTAS 160523Z 09006KT 09/09 A2988 RMK A01 T00880087  RH  100%=      5-min Rain = 0
KTAS 160524Z 10007KT 09/09 A2988 RMK A01 T00880087  RH  100%=      5-min Rain = 0
KTAS 160525Z 10006KT 09/09 A2988 RMK A01 T00880087  RH  100%=      5-min Rain = 0
KTAS 160526Z 08008KT 09/09 A2988 RMK A01 T00880087  RH  100%=      5-min Rain = 0
KTAS 160527Z 09007KT 09/09 A2988 RMK A01 T00880087  RH  100%=      5-min Rain = 0
KTAS 160528Z 10005KT 09/09 A2988 RMK A01 T00880088  RH  100%=      5-min Rain = 0
KTAS 160529Z 10005KT 09/09 A2988 RMK A01 T00890088  RH  100%=      5-min Rain = 0
KTAS 160530Z 11005KT 09/09 A2988 RMK A01 T00890088  RH  100%=      5-min Rain = 0
KTAS 160531Z 11008KT 09/09 A2988 RMK A01 T00890088  RH  100%=      5-min Rain = 0
KTAS 160532Z 10008KT 09/09 A2988 RMK A01 T00880087  RH  100%=      5-min Rain = 0
KTAS 160533Z 11007KT 09/09 A2988 RMK A01 T00880088  RH  100%=      5-min Rain = 0
KTAS 160534Z 10007KT 09/09 A2988 RMK A01 T00890088  RH  100%=      5-min Rain = 0
KTAS 160535Z 10007KT 09/09 A2988 RMK A01 T00890088  RH  100%=      5-min Rain = 0
KTAS 160536Z 11009KT 09/09 A2988 RMK A01 T00890088  RH  100%=      5-min Rain = 0
KTAS 160537Z 11010KT 09/09 A2988 RMK A01 T00890088  RH  100%=      5-min Rain = 0
KTAS 160538Z 10009KT 09/09 A2988 RMK A01 T00890088  RH  100%=      5-min Rain = 0
KTAS 160539Z 10008KT 09/09 A2988 RMK A01 T00890088  RH  100%=      5-min Rain = 0
KTAS 160540Z 11009KT 09/09 A2988 RMK A01 T00890088  RH  100%=      5-min Rain = 0
KTAS 160541Z 10009KT 09/09 A2988 RMK A01 T00890088  RH  100%=      5-min Rain = 0
KTAS 160542Z 11008KT 09/09 A2988 RMK A01 T00890088  RH  100%=      5-min Rain = 0
KTAS 160543Z 11009KT 09/09 A2988 RMK A01 T00890088  RH  100%=      5-min Rain = 0
KTAS 160544Z 11007KT 09/09 A2989 RMK A01 T00890088  RH  100%=      5-min Rain = 0
KTAS 160545Z 11008KT 09/09 A2989 RMK A01 T00890088  RH  100%=      5-min Rain = 0
KTAS 160546Z 10007KT 09/09 A2989 RMK A01 T00890088  RH  100%=      5-min Rain = 0
KTAS 160547Z 12006KT 09/09 A2989 RMK A01 T00890088  RH  100%=      5-min Rain = 0
KTAS 160548Z 12006KT 09/09 A2988 RMK A01 T00890088  RH  100%=      5-min Rain = 0
KTAS 160549Z 10007KT 09/09 A2988 RMK A01 T00890089  RH  100%=      5-min Rain = 0
KTAS 160550Z 11007KT 09/09 A2988 RMK A01 T00890089  RH  100%=      5-min Rain = 0
KTAS 160551Z 09008KT 09/09 A2988 RMK A01 T00890089  RH  100%=      5-min Rain = 0
KTAS 160552Z 11006KT 09/09 A2988 RMK A01 T00890088  RH  100%=      5-min Rain = 0
KTAS 160553Z 11006KT 09/09 A2988 RMK A01 T00890088  RH  100%=      5-min Rain = 0
KTAS 160554Z 10008KT 09/09 A2988 RMK A01 T00890088  RH  100%=      5-min Rain = 0
KTAS 160555Z 10008KT 09/09 A2988 RMK A01 T00890088  RH  100%=      5-min Rain = 0
KTAS 160556Z 10009KT 09/09 A2988 RMK A01 T00890088  RH  100%=      5-min Rain = 0
KTAS 160557Z 10009KT 09/09 A2988 RMK A01 T00890088  RH  100%=      5-min Rain = 0
KTAS 160558Z 10008KT 09/09 A2988 RMK A01 T00890089  RH  100%=      5-min Rain = 0
KTAS 160559Z 10008KT 09/09 A2988 RMK A01 T00890089  RH  100%=      5-min Rain = 0
KTAS 160600Z 11010KT 09/09 A2988 RMK A01 T00890089  RH  100%=      5-min Rain = 0
KTAS 160601Z 10008KT 09/09 A2988 RMK A01 T00890088  RH  100%=      5-min Rain = 0
KTAS 160602Z 10009KT 09/09 A2988 RMK A01 T00890088  RH  100%=      5-min Rain = 0
KTAS 160603Z 10008KT 09/09 A2988 RMK A01 T00890088  RH  100%=      5-min Rain = 0
KTAS 160604Z 10008KT 09/09 A2988 RMK A01 T00890088  RH  100%=      5-min Rain = 0
KTAS 160605Z 10007KT 09/09 A2988 RMK A01 T00890088  RH  100%=      5-min Rain = 0
KTAS 160606Z 10008KT 09/09 A2988 RMK A01 T00890089  RH  100%=      5-min Rain = 0
KTAS 160607Z 11008KT 09/09 A2987 RMK A01 T00890089  RH  100%=      5-min Rain = 0
KTAS 160608Z 10008KT 09/09 A2987 RMK A01 T00890089  RH  100%=      5-min Rain = 0
KTAS 160609Z 10008KT 09/09 A2987 RMK A01 T00890089  RH  100%=      5-min Rain = 0
KTAS 160610Z 11008KT 09/09 A2987 RMK A01 T00890088  RH  100%=      5-min Rain = 0
KTAS 160611Z 11007KT 09/09 A2987 RMK A01 T00890089  RH  100%=      5-min Rain = 0
KTAS 160612Z 11006KT 09/09 A2987 RMK A01 T00890089  RH  100%=      5-min Rain = 0
KTAS 160613Z 10007KT 09/09 A2987 RMK A01 T00890089  RH  100%=      5-min Rain = 0
KTAS 160614Z 10008KT 09/09 A2987 RMK A01 T00890089  RH  100%=      5-min Rain = 0
KTAS 160615Z 10006KT 09/09 A2987 RMK A01 T00890089  RH  100%=      5-min Rain = 0
KTAS 160616Z 11007KT 09/09 A2987 RMK A01 T00890089  RH  100%=      5-min Rain = 0
KTAS 160617Z 10007KT 09/09 A2987 RMK A01 T00890089  RH  100%=      5-min Rain = 0
KTAS 160618Z 10008KT 09/09 A2987 RMK A01 T00890089  RH  100%=      5-min Rain = 0
KTAS 160619Z 10008KT 09/09 A2987 RMK A01 T00890089  RH  100%=      5-min Rain = 0
KTAS 160620Z 11007KT 09/09 A2987 RMK A01 T00890089  RH  100%=      5-min Rain = 0
KTAS 160621Z 11006KT 09/09 A2987 RMK A01 T00890089  RH  100%=      5-min Rain = 0
KTAS 160622Z 11008KT 09/09 A2987 RMK A01 T00890089  RH  100%=      5-min Rain = 0
KTAS 160623Z 11007KT 09/09 A2986 RMK A01 T00890089  RH  100%=      5-min Rain = 0
KTAS 160624Z 11006KT 09/09 A2986 RMK A01 T00890089  RH  100%=      5-min Rain = 0.01
KTAS 160625Z 11006KT 09/09 A2986 RMK A01 T00890089  RH  100%=      5-min Rain = 0
KTAS 160626Z 11006KT 09/09 A2986 RMK A01 T00890089  RH  100%=      5-min Rain = 0
KTAS 160627Z 11006KT 09/09 A2986 RMK A01 T00890089  RH  100%=      5-min Rain = 0
KTAS 160628Z 11006KT 09/09 A2986 RMK A01 T00890089  RH  100%=      5-min Rain = 0
KTAS 160629Z 11006KT 09/09 A2986 RMK A01 T00890089  RH  100%=      5-min Rain = 0
KTAS 160630Z 11006KT 09/09 A2986 RMK A01 T00890089  RH  100%=      5-min Rain = 0
KTAS 160631Z 11006KT 09/09 A2986 RMK A01 T00900089  RH  100%=      5-min Rain = 0
KTAS 160632Z 11005KT 09/09 A2986 RMK A01 T00900089  RH  100%=      5-min Rain = 0
KTAS 160633Z 11006KT 09/09 A2986 RMK A01 T00900089  RH  100%=      5-min Rain = 0
KTAS 160634Z 10005KT 09/09 A2986 RMK A01 T00900089  RH  100%=      5-min Rain = 0
KTAS 160635Z 11005KT 09/09 A2986 RMK A01 T00900089  RH  100%=      5-min Rain = 0
KTAS 160636Z 11005KT 09/09 A2986 RMK A01 T00900089  RH  100%=      5-min Rain = 0
KTAS 160637Z 10006KT 09/09 A2986 RMK A01 T00900089  RH  100%=      5-min Rain = 0
KTAS 160638Z 10007KT 09/09 A2986 RMK A01 T00900089  RH  100%=      5-min Rain = 0
KTAS 160639Z 11005KT 09/09 A2986 RMK A01 T00900089  RH  100%=      5-min Rain = 0
KTAS 160640Z 11005KT 09/09 A2986 RMK A01 T00900089  RH  100%=      5-min Rain = 0
KTAS 160641Z 10007KT 09/09 A2986 RMK A01 T00900089  RH  100%=      5-min Rain = 0
KTAS 160642Z 10007KT 09/09 A2986 RMK A01 T00900089  RH  100%=      5-min Rain = 0
KTAS 160643Z 10005KT 09/09 A2986 RMK A01 T00900089  RH  100%=      5-min Rain = 0
KTAS 160644Z 10006KT 09/09 A2986 RMK A01 T00900089  RH  100%=      5-min Rain = 0
KTAS 160645Z 10008KT 09/09 A2986 RMK A01 T00900089  RH  100%=      5-min Rain = 0
KTAS 160646Z 10007KT 09/09 A2986 RMK A01 T00900089  RH  100%=      5-min Rain = 0
KTAS 160647Z 10007KT 09/09 A2986 RMK A01 T00900089  RH  100%=      5-min Rain = 0
KTAS 160648Z 11007KT 09/09 A2986 RMK A01 T00900089  RH  100%=      5-min Rain = 0
KTAS 160649Z 11006KT 09/09 A2986 RMK A01 T00900089  RH  100%=      5-min Rain = 0
KTAS 160650Z 10007KT 09/09 A2986 RMK A01 T00900089  RH  100%=      5-min Rain = 0
KTAS 160651Z 10007KT 09/09 A2986 RMK A01 T00900089  RH  100%=      5-min Rain = 0
KTAS 160652Z 10006KT 09/09 A2986 RMK A01 T00900089  RH  100%=      5-min Rain = 0
KTAS 160653Z 10007KT 09/09 A2986 RMK A01 T00900090  RH  100%=      5-min Rain = 0
KTAS 160654Z 10008KT 09/09 A2986 RMK A01 T00900089  RH  100%=      5-min Rain = 0
KTAS 160655Z 10007KT 09/09 A2985 RMK A01 T00900090  RH  100%=      5-min Rain = 0
KTAS 160656Z 10006KT 09/09 A2985 RMK A01 T00900089  RH  100%=      5-min Rain = 0
KTAS 160657Z 11006KT 09/09 A2985 RMK A01 T00900090  RH  100%=      5-min Rain = 0
KTAS 160658Z 10006KT 09/09 A2985 RMK A01 T00900090  RH  100%=      5-min Rain = 0
KTAS 160659Z 09005KT 09/09 A2985 RMK A01 T00900090  RH  100%=      5-min Rain = 0
KTAS 160700Z 09005KT 09/09 A2985 RMK A01 T00900089  RH  100%=      5-min Rain = 0
KTAS 160701Z 08006KT 09/09 A2985 RMK A01 T00900089  RH  100%=      5-min Rain = 0
KTAS 160702Z 09006KT 09/09 A2985 RMK A01 T00900089  RH  100%=      5-min Rain = 0
KTAS 160703Z 10005KT 09/09 A2985 RMK A01 T00900090  RH  100%=      5-min Rain = 0
KTAS 160704Z 10006KT 09/09 A2985 RMK A01 T00900089  RH  100%=      5-min Rain = 0
KTAS 160705Z 09006KT 09/09 A2985 RMK A01 T00900090  RH  100%=      5-min Rain = 0
KTAS 160706Z 08005KT 09/09 A2985 RMK A01 T00900089  RH  100%=      5-min Rain = 0
KTAS 160707Z 09005KT 09/09 A2985 RMK A01 T00900089  RH  100%=      5-min Rain = 0
KTAS 160708Z 10007KT 09/09 A2985 RMK A01 T00900090  RH  100%=      5-min Rain = 0
KTAS 160709Z 10006KT 09/09 A2985 RMK A01 T00900090  RH  100%=      5-min Rain = 0
KTAS 160710Z 10006KT 09/09 A2985 RMK A01 T00900090  RH  100%=      5-min Rain = 0
KTAS 160711Z 10005KT 09/09 A2985 RMK A01 T00900090  RH  100%=      5-min Rain = 0
KTAS 160712Z 11006KT 09/09 A2985 RMK A01 T00900090  RH  100%=      5-min Rain = 0
KTAS 160713Z 10007KT 09/09 A2985 RMK A01 T00900090  RH  100%=      5-min Rain = 0
KTAS 160714Z 10007KT 09/09 A2984 RMK A01 T00900089  RH  100%=      5-min Rain = 0
KTAS 160715Z 10006KT 09/09 A2984 RMK A01 T00900090  RH  100%=      5-min Rain = 0
KTAS 160716Z 10006KT 09/09 A2984 RMK A01 T00900090  RH  100%=      5-min Rain = 0
KTAS 160717Z 10007KT 09/09 A2984 RMK A01 T00900090  RH  100%=      5-min Rain = 0
KTAS 160718Z 10008KT 09/09 A2984 RMK A01 T00900090  RH  100%=      5-min Rain = 0
KTAS 160719Z 10006KT 09/09 A2984 RMK A01 T00900090  RH  100%=      5-min Rain = 0
KTAS 160720Z 10006KT 09/09 A2984 RMK A01 T00900090  RH  100%=      5-min Rain = 0
KTAS 160721Z 11007KT 09/09 A2984 RMK A01 T00900090  RH  100%=      5-min Rain = 0
KTAS 160722Z 11006KT 09/09 A2984 RMK A01 T00900090  RH  100%=      5-min Rain = 0
KTAS 160723Z 11004KT 09/09 A2984 RMK A01 T00900090  RH  100%=      5-min Rain = 0
KTAS 160724Z 09005KT 09/09 A2984 RMK A01 T00900090  RH  100%=      5-min Rain = 0
KTAS 160725Z 11006KT 09/09 A2984 RMK A01 T00900090  RH  100%=      5-min Rain = 0
KTAS 160726Z 10008KT 09/09 A2984 RMK A01 T00900090  RH  100%=      5-min Rain = 0
KTAS 160727Z 11006KT 09/09 A2984 RMK A01 T00900090  RH  100%=      5-min Rain = 0
KTAS 160728Z 10006KT 09/09 A2984 RMK A01 T00900090  RH  100%=      5-min Rain = 0
KTAS 160729Z 10007KT 09/09 A2984 RMK A01 T00900090  RH  100%=      5-min Rain = 0
KTAS 160730Z 11005KT 09/09 A2984 RMK A01 T00900090  RH  100%=      5-min Rain = 0
KTAS 160731Z 10005KT 09/09 A2984 RMK A01 T00900090  RH  100%=      5-min Rain = 0
KTAS 160732Z 10007KT 09/09 A2984 RMK A01 T00900090  RH  100%=      5-min Rain = 0
KTAS 160733Z 10007KT 09/09 A2984 RMK A01 T00900090  RH  100%=      5-min Rain = 0
KTAS 160734Z 10007KT 09/09 A2984 RMK A01 T00910090  RH  100%=      5-min Rain = 0
KTAS 160735Z 10005KT 09/09 A2984 RMK A01 T00910090  RH  100%=      5-min Rain = 0
KTAS 160736Z 10005KT 09/09 A2984 RMK A01 T00900090  RH  100%=      5-min Rain = 0
KTAS 160737Z 11005KT 09/09 A2984 RMK A01 T00910090  RH  100%=      5-min Rain = 0
KTAS 160738Z 11006KT 09/09 A2984 RMK A01 T00910090  RH  100%=      5-min Rain = 0
KTAS 160739Z 11006KT 09/09 A2984 RMK A01 T00910090  RH  100%=      5-min Rain = 0
KTAS 160740Z 11006KT 09/09 A2984 RMK A01 T00900090  RH  100%=      5-min Rain = 0
KTAS 160741Z 10005KT 09/09 A2984 RMK A01 T00900090  RH  100%=      5-min Rain = 0
KTAS 160742Z 10005KT 09/09 A2984 RMK A01 T00900090  RH  100%=      5-min Rain = 0
KTAS 160743Z 10005KT 09/09 A2984 RMK A01 T00900090  RH  100%=      5-min Rain = 0
KTAS 160744Z 10006KT 09/09 A2984 RMK A01 T00900090  RH  100%=      5-min Rain = 0
KTAS 160745Z 11004KT 09/09 A2984 RMK A01 T00900090  RH  100%=      5-min Rain = 0
KTAS 160746Z 10005KT 09/09 A2984 RMK A01 T00900090  RH  100%=      5-min Rain = 0
KTAS 160747Z 10005KT 09/09 A2984 RMK A01 T00900090  RH  100%=      5-min Rain = 0
KTAS 160748Z 10005KT 09/09 A2984 RMK A01 T00900090  RH  100%=      5-min Rain = 0
KTAS 160749Z 09005KT 09/09 A2984 RMK A01 T00900090  RH  100%=      5-min Rain = 0
KTAS 160750Z 10006KT 09/09 A2984 RMK A01 T00900090  RH  100%=      5-min Rain = 0
KTAS 160751Z 10006KT 09/09 A2984 RMK A01 T00900090  RH  100%=      5-min Rain = 0
KTAS 160752Z 10006KT 09/09 A2984 RMK A01 T00900090  RH  100%=      5-min Rain = 0
KTAS 160753Z 10006KT 09/09 A2984 RMK A01 T00900090  RH  100%=      5-min Rain = 0
KTAS 160754Z 11005KT 09/09 A2984 RMK A01 T00900090  RH  100%=      5-min Rain = 0
KTAS 160755Z 10005KT 09/09 A2984 RMK A01 T00900090  RH  100%=      5-min Rain = 0
KTAS 160756Z 10006KT 09/09 A2984 RMK A01 T00900090  RH  100%=      5-min Rain = 0
KTAS 160757Z 10005KT 09/09 A2984 RMK A01 T00900090  RH  100%=      5-min Rain = 0
KTAS 160758Z 10005KT 09/09 A2984 RMK A01 T00900090  RH  100%=      5-min Rain = 0
KTAS 160759Z 10006KT 09/09 A2984 RMK A01 T00900090  RH  100%=      5-min Rain = 0
KTAS 160800Z 10005KT 09/09 A2984 RMK A01 T00900090  RH  100%=      5-min Rain = 0
KTAS 160801Z 10005KT 09/09 A2984 RMK A01 T00900090  RH  100%=      5-min Rain = 0
KTAS 160802Z 10005KT 09/09 A2984 RMK A01 T00900090  RH  100%=      5-min Rain = 0
KTAS 160803Z 09005KT 09/09 A2984 RMK A01 T00900090  RH  100%=      5-min Rain = 0
KTAS 160804Z 10004KT 09/09 A2984 RMK A01 T00900090  RH  100%=      5-min Rain = 0
KTAS 160805Z 12004KT 09/09 A2984 RMK A01 T00900090  RH  100%=      5-min Rain = 0
KTAS 160806Z 11003KT 09/09 A2984 RMK A01 T00900090  RH  100%=      5-min Rain = 0
KTAS 160807Z 11002KT 09/09 A2984 RMK A01 T00900090  RH  100%=      5-min Rain = 0
KTAS 160808Z 12003KT 09/09 A2984 RMK A01 T00900090  RH  100%=      5-min Rain = 0
KTAS 160809Z 12003KT 09/09 A2984 RMK A01 T00900090  RH  100%=      5-min Rain = 0
KTAS 160810Z 13002KT 09/09 A2984 RMK A01 T00900090  RH  100%=      5-min Rain = 0
KTAS 160811Z 13002KT 09/09 A2984 RMK A01 T00900090  RH  100%=      5-min Rain = 0
KTAS 160812Z 13002KT 09/09 A2984 RMK A01 T00900090  RH  100%=      5-min Rain = 0
KTAS 160813Z 12002KT 09/09 A2984 RMK A01 T00900090  RH  100%=      5-min Rain = 0
KTAS 160814Z 13003KT 09/09 A2984 RMK A01 T00900090  RH  100%=      5-min Rain = 0
KTAS 160815Z 12003KT 09/09 A2984 RMK A01 T00900090  RH  100%=      5-min Rain = 0
KTAS 160816Z 13002KT 09/09 A2984 RMK A01 T00900090  RH  100%=      5-min Rain = 0
KTAS 160817Z 15003KT 09/09 A2984 RMK A01 T00900090  RH  100%=      5-min Rain = 0
KTAS 160818Z 11002KT 09/09 A2984 RMK A01 T00900090  RH  100%=      5-min Rain = 0
KTAS 160819Z 13002KT 09/09 A2984 RMK A01 T00910090  RH  100%=      5-min Rain = 0
KTAS 160820Z 13003KT 09/09 A2984 RMK A01 T00910090  RH  100%=      5-min Rain = 0
KTAS 160821Z 13003KT 09/09 A2984 RMK A01 T00910090  RH  100%=      5-min Rain = 0
KTAS 160822Z 13002KT 09/09 A2984 RMK A01 T00910090  RH  100%=      5-min Rain = 0
KTAS 160823Z 15001KT 09/09 A2984 RMK A01 T00910090  RH  100%=      5-min Rain = 0
KTAS 160824Z 15001KT 09/09 A2984 RMK A01 T00910090  RH  100%=      5-min Rain = 0
KTAS 160825Z 15001KT 09/09 A2984 RMK A01 T00910090  RH  100%=      5-min Rain = 0
KTAS 160826Z 16002KT 09/09 A2984 RMK A01 T00910090  RH  100%=      5-min Rain = 0
KTAS 160827Z 16001KT 09/09 A2984 RMK A01 T00910090  RH  100%=      5-min Rain = 0
KTAS 160828Z 14001KT 09/09 A2984 RMK A01 T00910091  RH  100%=      5-min Rain = 0
KTAS 160829Z 14001KT 09/09 A2984 RMK A01 T00910090  RH  100%=      5-min Rain = 0
KTAS 160830Z 15002KT 09/09 A2984 RMK A01 T00910090  RH  100%=      5-min Rain = 0
KTAS 160831Z 15002KT 09/09 A2984 RMK A01 T00910091  RH  100%=      5-min Rain = 0
KTAS 160832Z 14001KT 09/09 A2984 RMK A01 T00910091  RH  100%=      5-min Rain = 0
KTAS 160833Z 14002KT 09/09 A2984 RMK A01 T00910091  RH  100%=      5-min Rain = 0
KTAS 160834Z 15003KT 09/09 A2984 RMK A01 T00910091  RH  100%=      5-min Rain = 0
KTAS 160835Z 14003KT 09/09 A2983 RMK A01 T00910091  RH  100%=      5-min Rain = 0
KTAS 160836Z 14003KT 09/09 A2983 RMK A01 T00910091  RH  100%=      5-min Rain = 0
KTAS 160837Z 14003KT 09/09 A2983 RMK A01 T00910090  RH  100%=      5-min Rain = 0
KTAS 160838Z 15004KT 09/09 A2983 RMK A01 T00910091  RH  100%=      5-min Rain = 0
KTAS 160839Z 15004KT 09/09 A2983 RMK A01 T00910091  RH  100%=      5-min Rain = 0
KTAS 160840Z 14003KT 09/09 A2983 RMK A01 T00910091  RH  100%=      5-min Rain = 0
KTAS 160841Z 15003KT 09/09 A2983 RMK A01 T00910091  RH  100%=      5-min Rain = 0
KTAS 160842Z 14003KT 09/09 A2983 RMK A01 T00920092  RH  100%=      5-min Rain = 0
KTAS 160843Z 15003KT 09/09 A2982 RMK A01 T00920092  RH  100%=      5-min Rain = 0
KTAS 160844Z 14004KT 09/09 A2982 RMK A01 T00920092  RH  100%=      5-min Rain = 0
KTAS 160845Z 16003KT 09/09 A2982 RMK A01 T00910091  RH  100%=      5-min Rain = 0
KTAS 160846Z 16003KT 09/09 A2983 RMK A01 T00910091  RH  100%=      5-min Rain = 0
KTAS 160847Z 16003KT 09/09 A2983 RMK A01 T00910091  RH  100%=      5-min Rain = 0
KTAS 160848Z 16003KT 09/09 A2983 RMK A01 T00910091  RH  100%=      5-min Rain = 0
KTAS 160849Z 16003KT 09/09 A2983 RMK A01 T00920092  RH  100%=      5-min Rain = 0
KTAS 160850Z 16004KT 09/09 A2983 RMK A01 T00920092  RH  100%=      5-min Rain = 0
KTAS 160851Z 16004KT 09/09 A2983 RMK A01 T00920092  RH  100%=      5-min Rain = 0
KTAS 160852Z 16005KT 09/09 A2983 RMK A01 T00920092  RH  100%=      5-min Rain = 0
KTAS 160853Z 16004KT 09/09 A2983 RMK A01 T00920092  RH  100%=      5-min Rain = 0
KTAS 160854Z 15004KT 09/09 A2983 RMK A01 T00920092  RH  100%=      5-min Rain = 0
KTAS 160855Z 16004KT 09/09 A2982 RMK A01 T00920092  RH  100%=      5-min Rain = 0
KTAS 160856Z 16004KT 09/09 A2982 RMK A01 T00920092  RH  100%=      5-min Rain = 0
KTAS 160857Z 16003KT 09/09 A2982 RMK A01 T00920092  RH  100%=      5-min Rain = 0
KTAS 160858Z 18002KT 09/09 A2982 RMK A01 T00920092  RH  100%=      5-min Rain = 0
KTAS 160859Z 17002KT 09/09 A2982 RMK A01 T00920092  RH  100%=      5-min Rain = 0
KTAS 160900Z 16003KT 09/09 A2982 RMK A01 T00920092  RH  100%=      5-min Rain = 0
KTAS 160901Z 15003KT 09/09 A2982 RMK A01 T00920092  RH  100%=      5-min Rain = 0
KTAS 160902Z 16003KT 09/09 A2982 RMK A01 T00920092  RH  100%=      5-min Rain = 0
KTAS 160903Z 16003KT 09/09 A2982 RMK A01 T00930093  RH  100%=      5-min Rain = 0
KTAS 160904Z 16003KT 09/09 A2982 RMK A01 T00930093  RH  100%=      5-min Rain = 0
KTAS 160905Z 16004KT 09/09 A2982 RMK A01 T00920092  RH  100%=      5-min Rain = 0
KTAS 160906Z 16004KT 09/09 A2982 RMK A01 T00930093  RH  100%=      5-min Rain = 0
KTAS 160907Z 16004KT 09/09 A2982 RMK A01 T00920092  RH  100%=      5-min Rain = 0
KTAS 160908Z 16003KT 09/09 A2982 RMK A01 T00920092  RH  100%=      5-min Rain = 0
KTAS 160909Z 17003KT 09/09 A2982 RMK A01 T00920092  RH  100%=      5-min Rain = 0
KTAS 160910Z 17002KT 09/09 A2983 RMK A01 T00920092  RH  100%=      5-min Rain = 0
KTAS 160911Z 16002KT 09/09 A2983 RMK A01 T00920092  RH  100%=      5-min Rain = 0
KTAS 160912Z 15000KT 09/09 A2983 RMK A01 T00920092  RH  100%=      5-min Rain = 0
KTAS 160913Z 36002KT 09/09 A2984 RMK A01 T00920092  RH  100%=      5-min Rain = 0
KTAS 160914Z 34006KT 09/09 A2984 RMK A01 T00920092  RH  100%=      5-min Rain = 0
KTAS 160915Z 34011KT 09/09 A2985 RMK A01 T00930093  RH  100%=      5-min Rain = 0
KTAS 160916Z 34013KT 09/09 A2986 RMK A01 T00930093  RH  100%=      5-min Rain = 0
KTAS 160917Z 34014KT 09/09 A2986 RMK A01 T00940094  RH  100%=      5-min Rain = 0
KTAS 160918Z 34015KT 09/09 A2986 RMK A01 T00940094  RH  100%=      5-min Rain = 0
KTAS 160919Z 34013KT 09/09 A2986 RMK A01 T00930093  RH  100%=      5-min Rain = 0
KTAS 160920Z 34012KT 09/09 A2986 RMK A01 T00930093  RH  100%=      5-min Rain = 0
KTAS 160921Z 35010KT 09/09 A2986 RMK A01 T00930093  RH  100%=      5-min Rain = 0
KTAS 160922Z 35007KT 09/09 A2986 RMK A01 T00930093  RH  100%=      5-min Rain = 0
KTAS 160923Z 35007KT 09/09 A2986 RMK A01 T00930093  RH  100%=      5-min Rain = 0
KTAS 160924Z 36008KT 09/09 A2985 RMK A01 T00930093  RH  100%=      5-min Rain = 0
KTAS 160925Z 36009KT 09/09 A2986 RMK A01 T00930093  RH  100%=      5-min Rain = 0
KTAS 160926Z 35010KT 09/09 A2986 RMK A01 T00930093  RH  100%=      5-min Rain = 0
KTAS 160927Z 35011KT 09/09 A2986 RMK A01 T00930093  RH  100%=      5-min Rain = 0
KTAS 160928Z 35010KT 09/09 A2987 RMK A01 T00930093  RH  100%=      5-min Rain = 0
KTAS 160929Z 35011KT 09/09 A2987 RMK A01 T00930093  RH  100%=      5-min Rain = 0
KTAS 160930Z 35009KT 09/09 A2987 RMK A01 T00930093  RH  100%=      5-min Rain = 0
KTAS 160931Z 00008KT 09/09 A2986 RMK A01 T00930093  RH  100%=      5-min Rain = 0
KTAS 160932Z 00006KT 09/09 A2986 RMK A01 T00920092  RH  100%=      5-min Rain = 0.01
KTAS 160933Z 01007KT 09/09 A2986 RMK A01 T00920092  RH  100%=      5-min Rain = 0
KTAS 160934Z 01006KT 09/09 A2986 RMK A01 T00920092  RH  100%=      5-min Rain = 0
KTAS 160935Z 00007KT 09/09 A2986 RMK A01 T00920092  RH  100%=      5-min Rain = 0
KTAS 160936Z 36009KT 09/09 A2986 RMK A01 T00920092  RH  100%=      5-min Rain = 0
KTAS 160937Z 35010KT 09/09 A2987 RMK A01 T00920092  RH  100%=      5-min Rain = 0
KTAS 160938Z 36010KT 09/09 A2987 RMK A01 T00920092  RH  100%=      5-min Rain = 0
KTAS 160939Z 00010KT 09/09 A2987 RMK A01 T00920092  RH  100%=      5-min Rain = 0
KTAS 160940Z 36009KT 09/09 A2987 RMK A01 T00920092  RH  100%=      5-min Rain = 0
KTAS 160941Z 00007KT 09/09 A2987 RMK A01 T00920092  RH  100%=      5-min Rain = 0
KTAS 160942Z 01005KT 09/09 A2986 RMK A01 T00920092  RH  100%=      5-min Rain = 0
KTAS 160943Z 01005KT 09/09 A2986 RMK A01 T00920092  RH  100%=      5-min Rain = 0
KTAS 160944Z 02006KT 09/09 A2986 RMK A01 T00920092  RH  100%=      5-min Rain = 0
KTAS 160945Z 01005KT 09/09 A2986 RMK A01 T00920092  RH  100%=      5-min Rain = 0
KTAS 160946Z 01006KT 09/09 A2986 RMK A01 T00920092  RH  100%=      5-min Rain = 0
KTAS 160947Z 00005KT 09/09 A2986 RMK A01 T00920092  RH  100%=      5-min Rain = 0
KTAS 160948Z 01007KT 09/09 A2986 RMK A01 T00920092  RH  100%=      5-min Rain = 0
KTAS 160949Z 02007KT 09/09 A2986 RMK A01 T00920092  RH  100%=      5-min Rain = 0
KTAS 160950Z 02006KT 09/09 A2986 RMK A01 T00920092  RH  100%=      5-min Rain = 0
KTAS 160951Z 03005KT 09/09 A2986 RMK A01 T00920092  RH  100%=      5-min Rain = 0
KTAS 160952Z 02006KT 09/09 A2986 RMK A01 T00920092  RH  100%=      5-min Rain = 0
KTAS 160953Z 02006KT 09/09 A2986 RMK A01 T00930093  RH  100%=      5-min Rain = 0
KTAS 160954Z 02007KT 09/09 A2986 RMK A01 T00930093  RH  100%=      5-min Rain = 0
KTAS 160955Z 02006KT 09/09 A2986 RMK A01 T00920092  RH  100%=      5-min Rain = 0
KTAS 160956Z 02005KT 09/09 A2986 RMK A01 T00920092  RH  100%=      5-min Rain = 0
KTAS 160957Z 02004KT 09/09 A2986 RMK A01 T00920093  RH  100%=      5-min Rain = 0
KTAS 160958Z 02004KT 09/09 A2985 RMK A01 T00930093  RH  100%=      5-min Rain = 0
KTAS 160959Z 03004KT 09/09 A2985 RMK A01 T00920092  RH  100%=      5-min Rain = 0
KTAS 161000Z 05003KT 09/09 A2985 RMK A01 T00920092  RH  100%=      5-min Rain = 0
KTAS 161001Z 04003KT 09/09 A2985 RMK A01 T00930093  RH  100%=      5-min Rain = 0
KTAS 161002Z 03004KT 09/09 A2985 RMK A01 T00920092  RH  100%=      5-min Rain = 0
KTAS 161003Z 03004KT 09/09 A2985 RMK A01 T00920092  RH  100%=      5-min Rain = 0
KTAS 161004Z 02004KT 09/09 A2985 RMK A01 T00920092  RH  100%=      5-min Rain = 0
KTAS 161005Z 01005KT 09/09 A2986 RMK A01 T00920092  RH  100%=      5-min Rain = 0
KTAS 161006Z 01005KT 09/09 A2986 RMK A01 T00930093  RH  100%=      5-min Rain = 0.01
KTAS 161007Z 01004KT 09/09 A2986 RMK A01 T00920093  RH  100%=      5-min Rain = 0
KTAS 161008Z 01006KT 09/09 A2986 RMK A01 T00930093  RH  100%=      5-min Rain = 0
KTAS 161009Z 01006KT 09/09 A2986 RMK A01 T00930093  RH  100%=      5-min Rain = 0
KTAS 161010Z 01005KT 09/09 A2986 RMK A01 T00930093  RH  100%=      5-min Rain = 0
KTAS 161011Z 01006KT 09/09 A2986 RMK A01 T00920093  RH  100%=      5-min Rain = 0
KTAS 161012Z 01006KT 09/09 A2986 RMK A01 T00930093  RH  100%=      5-min Rain = 0
KTAS 161013Z 36007KT 09/09 A2987 RMK A01 T00930093  RH  100%=      5-min Rain = 0
KTAS 161014Z 00007KT 09/09 A2987 RMK A01 T00930093  RH  100%=      5-min Rain = 0
KTAS 161015Z 00008KT 09/09 A2987 RMK A01 T00930093  RH  100%=      5-min Rain = 0
KTAS 161016Z 00008KT 09/09 A2987 RMK A01 T00930093  RH  100%=      5-min Rain = 0
KTAS 161017Z 01008KT 09/09 A2987 RMK A01 T00930093  RH  100%=      5-min Rain = 0
KTAS 161018Z 00008KT 09/09 A2987 RMK A01 T00930093  RH  100%=      5-min Rain = 0
KTAS 161019Z 01008KT 09/09 A2986 RMK A01 T00930093  RH  100%=      5-min Rain = 0
KTAS 161020Z 01007KT 09/09 A2986 RMK A01 T00930093  RH  100%=      5-min Rain = 0
KTAS 161021Z 01009KT 09/09 A2986 RMK A01 T00930093  RH  100%=      5-min Rain = 0
KTAS 161022Z 01010KT 09/09 A2986 RMK A01 T00930093  RH  100%=      5-min Rain = 0
KTAS 161023Z 01010KT 09/09 A2986 RMK A01 T00930093  RH  100%=      5-min Rain = 0
KTAS 161024Z 01009KT 09/09 A2986 RMK A01 T00930093  RH  100%=      5-min Rain = 0
KTAS 161025Z 01010KT 09/09 A2986 RMK A01 T00930093  RH  100%=      5-min Rain = 0
KTAS 161026Z 00009KT 09/09 A2986 RMK A01 T00930093  RH  100%=      5-min Rain = 0
KTAS 161027Z 00011KT 09/09 A2986 RMK A01 T00920092  RH  100%=      5-min Rain = 0
KTAS 161028Z 01010KT 09/09 A2986 RMK A01 T00920092  RH  100%=      5-min Rain = 0
KTAS 161029Z 01011KT 09/09 A2986 RMK A01 T00920092  RH  100%=      5-min Rain = 0
KTAS 161030Z 01009KT 09/09 A2986 RMK A01 T00920092  RH  100%=      5-min Rain = 0
KTAS 161031Z 01011KT 09/09 A2986 RMK A01 T00920092  RH  100%=      5-min Rain = 0
KTAS 161032Z 00010KT 09/09 A2987 RMK A01 T00920092  RH  100%=      5-min Rain = 0
KTAS 161033Z 01008KT 09/09 A2987 RMK A01 T00920092  RH  100%=      5-min Rain = 0
KTAS 161034Z 01010KT 09/09 A2986 RMK A01 T00920092  RH  100%=      5-min Rain = 0
KTAS 161035Z 01009KT 09/09 A2986 RMK A01 T00920092  RH  100%=      5-min Rain = 0
KTAS 161036Z 00011KT 09/09 A2986 RMK A01 T00920092  RH  100%=      5-min Rain = 0
KTAS 161037Z 01011KT 09/09 A2987 RMK A01 T00920092  RH  100%=      5-min Rain = 0
KTAS 161038Z 01010KT 09/09 A2987 RMK A01 T00920092  RH  100%=      5-min Rain = 0
KTAS 161039Z 01009KT 09/09 A2987 RMK A01 T00920092  RH  100%=      5-min Rain = 0
KTAS 161040Z 01009KT 09/09 A2987 RMK A01 T00920092  RH  100%=      5-min Rain = 0
KTAS 161041Z 01010KT 09/09 A2987 RMK A01 T00920092  RH  100%=      5-min Rain = 0
KTAS 161042Z 02009KT 09/09 A2987 RMK A01 T00920092  RH  100%=      5-min Rain = 0
KTAS 161043Z 01008KT 09/09 A2987 RMK A01 T00920092  RH  100%=      5-min Rain = 0
KTAS 161044Z 02011KT 09/09 A2987 RMK A01 T00920092  RH  100%=      5-min Rain = 0
KTAS 161045Z 02011KT 09/09 A2987 RMK A01 T00920092  RH  100%=      5-min Rain = 0
KTAS 161046Z 01010KT 09/09 A2987 RMK A01 T00910091  RH  100%=      5-min Rain = 0
KTAS 161047Z 02012KT 09/09 A2987 RMK A01 T00910091  RH  100%=      5-min Rain = 0
KTAS 161048Z 01012KT 09/09 A2987 RMK A01 T00910091  RH  100%=      5-min Rain = 0
KTAS 161049Z 02011KT 09/09 A2987 RMK A01 T00910091  RH  100%=      5-min Rain = 0
KTAS 161050Z 02008KT 09/09 A2987 RMK A01 T00910091  RH  100%=      5-min Rain = 0
KTAS 161051Z 02008KT 09/09 A2987 RMK A01 T00910091  RH  100%=      5-min Rain = 0
KTAS 161052Z 02010KT 09/09 A2987 RMK A01 T00910091  RH  100%=      5-min Rain = 0
KTAS 161053Z 02008KT 09/09 A2987 RMK A01 T00910091  RH  100%=      5-min Rain = 0
KTAS 161054Z 03008KT 09/09 A2987 RMK A01 T00910091  RH  100%=      5-min Rain = 0
KTAS 161055Z 02009KT 09/09 A2987 RMK A01 T00900090  RH  100%=      5-min Rain = 0
KTAS 161056Z 02011KT 09/09 A2987 RMK A01 T00900090  RH  100%=      5-min Rain = 0
KTAS 161057Z 02012KT 09/09 A2987 RMK A01 T00890089  RH  100%=      5-min Rain = 0
KTAS 161058Z 02011KT 09/09 A2987 RMK A01 T00890089  RH  100%=      5-min Rain = 0
KTAS 161059Z 02012KT 09/09 A2987 RMK A01 T00890089  RH  100%=      5-min Rain = 0
KTAS 161100Z 02013KT 09/09 A2987 RMK A01 T00890089  RH  100%=      5-min Rain = 0
KTAS 161101Z 02012KT 09/09 A2987 RMK A01 T00890089  RH  100%=      5-min Rain = 0
KTAS 161102Z 02012KT 09/09 A2987 RMK A01 T00880088  RH  100%=      5-min Rain = 0
KTAS 161103Z 01012KT 09/09 A2987 RMK A01 T00880088  RH  100%=      5-min Rain = 0
KTAS 161104Z 01010KT 09/09 A2987 RMK A01 T00870087  RH  100%=      5-min Rain = 0
KTAS 161105Z 01010KT 09/09 A2987 RMK A01 T00870087  RH  100%=      5-min Rain = 0
KTAS 161106Z 01010KT 09/09 A2987 RMK A01 T00870087  RH  100%=      5-min Rain = 0
KTAS 161107Z 02009KT 09/09 A2987 RMK A01 T00870087  RH  100%=      5-min Rain = 0
KTAS 161108Z 02009KT 09/09 A2987 RMK A01 T00870087  RH  100%=      5-min Rain = 0
KTAS 161109Z 02008KT 09/09 A2987 RMK A01 T00870087  RH  100%=      5-min Rain = 0
KTAS 161110Z 02010KT 09/09 A2987 RMK A01 T00870087  RH  100%=      5-min Rain = 0
KTAS 161111Z 02011KT 09/09 A2987 RMK A01 T00870087  RH  100%=      5-min Rain = 0
KTAS 161112Z 02010KT 09/09 A2987 RMK A01 T00870087  RH  100%=      5-min Rain = 0
KTAS 161113Z 01008KT 09/09 A2987 RMK A01 T00870087  RH  100%=      5-min Rain = 0
KTAS 161114Z 02008KT 09/09 A2987 RMK A01 T00870087  RH  100%=      5-min Rain = 0
KTAS 161115Z 02009KT 09/09 A2987 RMK A01 T00870087  RH  100%=      5-min Rain = 0
KTAS 161116Z 02008KT 09/09 A2986 RMK A01 T00870087  RH  100%=      5-min Rain = 0
KTAS 161117Z 02009KT 09/09 A2986 RMK A01 T00870087  RH  100%=      5-min Rain = 0
KTAS 161118Z 03007KT 09/09 A2986 RMK A01 T00870087  RH  100%=      5-min Rain = 0
KTAS 161119Z 03007KT 09/09 A2986 RMK A01 T00870087  RH  100%=      5-min Rain = 0
KTAS 161120Z 03006KT 09/09 A2987 RMK A01 T00870087  RH  100%=      5-min Rain = 0
KTAS 161121Z 02007KT 09/09 A2987 RMK A01 T00870087  RH  100%=      5-min Rain = 0
KTAS 161122Z 02008KT 09/09 A2987 RMK A01 T00870087  RH  100%=      5-min Rain = 0
KTAS 161123Z 02008KT 09/09 A2987 RMK A01 T00870087  RH  100%=      5-min Rain = 0
KTAS 161124Z 02009KT 09/09 A2987 RMK A01 T00870087  RH  100%=      5-min Rain = 0
KTAS 161125Z 02009KT 09/09 A2987 RMK A01 T00870087  RH  100%=      5-min Rain = 0
KTAS 161126Z 02009KT 09/09 A2987 RMK A01 T00870087  RH  100%=      5-min Rain = 0
KTAS 161127Z 02008KT 09/09 A2987 RMK A01 T00870087  RH  100%=      5-min Rain = 0
KTAS 161128Z 02010KT 09/09 A2987 RMK A01 T00860086  RH  100%=      5-min Rain = 0
KTAS 161129Z 02008KT 09/09 A2987 RMK A01 T00860086  RH  100%=      5-min Rain = 0
KTAS 161130Z 02008KT 09/09 A2987 RMK A01 T00860086  RH  100%=      5-min Rain = 0
KTAS 161131Z 02009KT 09/09 A2987 RMK A01 T00860086  RH  100%=      5-min Rain = 0
KTAS 161132Z 02008KT 09/09 A2987 RMK A01 T00860086  RH  100%=      5-min Rain = 0
KTAS 161133Z 02007KT 09/09 A2987 RMK A01 T00860086  RH  100%=      5-min Rain = 0
KTAS 161134Z 02008KT 09/09 A2987 RMK A01 T00860086  RH  100%=      5-min Rain = 0
KTAS 161135Z 02007KT 09/09 A2987 RMK A01 T00860086  RH  100%=      5-min Rain = 0
KTAS 161136Z 02008KT 09/09 A2987 RMK A01 T00860086  RH  100%=      5-min Rain = 0
KTAS 161137Z 02008KT 09/09 A2987 RMK A01 T00860086  RH  100%=      5-min Rain = 0
KTAS 161138Z 02007KT 09/09 A2987 RMK A01 T00870087  RH  100%=      5-min Rain = 0
KTAS 161139Z 02006KT 09/09 A2987 RMK A01 T00870087  RH  100%=      5-min Rain = 0
KTAS 161140Z 02005KT 09/09 A2987 RMK A01 T00870087  RH  100%=      5-min Rain = 0
KTAS 161141Z 02007KT 09/09 A2987 RMK A01 T00870087  RH  100%=      5-min Rain = 0
KTAS 161142Z 02007KT 09/09 A2987 RMK A01 T00870087  RH  100%=      5-min Rain = 0
KTAS 161143Z 02007KT 09/09 A2987 RMK A01 T00870087  RH  100%=      5-min Rain = 0
KTAS 161144Z 03007KT 09/09 A2987 RMK A01 T00870087  RH  100%=      5-min Rain = 0
KTAS 161145Z 02008KT 09/09 A2987 RMK A01 T00870087  RH  100%=      5-min Rain = 0
KTAS 161146Z 03007KT 09/09 A2987 RMK A01 T00870087  RH  100%=      5-min Rain = 0
KTAS 161147Z 02006KT 09/09 A2987 RMK A01 T00870087  RH  100%=      5-min Rain = 0
KTAS 161148Z 03006KT 09/09 A2987 RMK A01 T00870087  RH  100%=      5-min Rain = 0
KTAS 161149Z 02007KT 09/09 A2987 RMK A01 T00870087  RH  100%=      5-min Rain = 0
KTAS 161150Z 03006KT 09/09 A2987 RMK A01 T00870087  RH  100%=      5-min Rain = 0
KTAS 161151Z 03006KT 09/09 A2987 RMK A01 T00870087  RH  100%=      5-min Rain = 0
KTAS 161152Z 03007KT 09/09 A2987 RMK A01 T00870087  RH  100%=      5-min Rain = 0
KTAS 161153Z 03008KT 09/09 A2987 RMK A01 T00870087  RH  100%=      5-min Rain = 0
KTAS 161154Z 02008KT 09/09 A2987 RMK A01 T00870087  RH  100%=      5-min Rain = 0
KTAS 161155Z 02009KT 09/09 A2987 RMK A01 T00860086  RH  100%=      5-min Rain = 0
KTAS 161156Z 03008KT 09/09 A2987 RMK A01 T00860086  RH  100%=      5-min Rain = 0
KTAS 161157Z 03008KT 09/09 A2987 RMK A01 T00860086  RH  100%=      5-min Rain = 0
KTAS 161158Z 03007KT 09/09 A2987 RMK A01 T00860086  RH  100%=      5-min Rain = 0
KTAS 161159Z 03008KT 09/09 A2987 RMK A01 T00860086  RH  100%=      5-min Rain = 0
KTAS 161200Z 03007KT 09/09 A2987 RMK A01 T00860086  RH  100%=      5-min Rain = 0
KTAS 161201Z 03008KT 09/09 A2987 RMK A01 T00860086  RH  100%=      5-min Rain = 0
KTAS 161202Z 03008KT 09/09 A2987 RMK A01 T00860086  RH  100%=      5-min Rain = 0
KTAS 161203Z 03007KT 09/09 A2987 RMK A01 T00870087  RH  100%=      5-min Rain = 0
KTAS 161204Z 03007KT 09/09 A2987 RMK A01 T00870087  RH  100%=      5-min Rain = 0
KTAS 161205Z 03007KT 09/09 A2987 RMK A01 T00860086  RH  100%=      5-min Rain = 0
KTAS 161206Z 03008KT 09/09 A2987 RMK A01 T00860086  RH  100%=      5-min Rain = 0
KTAS 161207Z 03007KT 09/09 A2987 RMK A01 T00860086  RH  100%=      5-min Rain = 0
KTAS 161208Z 03008KT 09/09 A2987 RMK A01 T00860086  RH  100%=      5-min Rain = 0
KTAS 161209Z 03007KT 09/09 A2987 RMK A01 T00860086  RH  100%=      5-min Rain = 0
KTAS 161210Z 03006KT 09/09 A2987 RMK A01 T00860086  RH  100%=      5-min Rain = 0
KTAS 161211Z 03007KT 09/09 A2987 RMK A01 T00860086  RH  100%=      5-min Rain = 0
KTAS 161212Z 03006KT 09/09 A2987 RMK A01 T00860086  RH  100%=      5-min Rain = 0
KTAS 161213Z 04006KT 09/09 A2987 RMK A01 T00860086  RH  100%=      5-min Rain = 0
KTAS 161214Z 04006KT 09/09 A2987 RMK A01 T00860086  RH  100%=      5-min Rain = 0
KTAS 161215Z 04006KT 09/09 A2987 RMK A01 T00860086  RH  100%=      5-min Rain = 0
KTAS 161216Z 03006KT 09/09 A2987 RMK A01 T00860086  RH  100%=      5-min Rain = 0
KTAS 161217Z 03006KT 09/09 A2987 RMK A01 T00860086  RH  100%=      5-min Rain = 0
KTAS 161218Z 03006KT 09/09 A2987 RMK A01 T00860086  RH  100%=      5-min Rain = 0
KTAS 161219Z 04006KT 09/09 A2987 RMK A01 T00870087  RH  100%=      5-min Rain = 0
KTAS 161220Z 05006KT 09/09 A2987 RMK A01 T00870086  RH  100%=      5-min Rain = 0
KTAS 161221Z 04006KT 09/09 A2987 RMK A01 T00870087  RH  100%=      5-min Rain = 0
KTAS 161222Z 04008KT 09/09 A2987 RMK A01 T00860086  RH  100%=      5-min Rain = 0
KTAS 161223Z 04008KT 09/09 A2987 RMK A01 T00870087  RH  100%=      5-min Rain = 0
KTAS 161224Z 04008KT 09/09 A2987 RMK A01 T00870087  RH  100%=      5-min Rain = 0
KTAS 161225Z 03008KT 09/09 A2987 RMK A01 T00870087  RH  100%=      5-min Rain = 0
KTAS 161226Z 03008KT 09/09 A2987 RMK A01 T00870086  RH  100%=      5-min Rain = 0
KTAS 161227Z 04006KT 09/09 A2987 RMK A01 T00870087  RH  100%=      5-min Rain = 0
KTAS 161228Z 03007KT 09/09 A2987 RMK A01 T00870087  RH  100%=      5-min Rain = 0
KTAS 161229Z 03008KT 09/09 A2987 RMK A01 T00870087  RH  100%=      5-min Rain = 0
KTAS 161230Z 03008KT 09/09 A2988 RMK A01 T00870087  RH  100%=      5-min Rain = 0
KTAS 161231Z 03007KT 09/09 A2988 RMK A01 T00860086  RH  100%=      5-min Rain = 0
KTAS 161232Z 03007KT 09/09 A2988 RMK A01 T00870087  RH  100%=      5-min Rain = 0
KTAS 161233Z 03007KT 09/09 A2988 RMK A01 T00870087  RH  100%=      5-min Rain = 0
KTAS 161234Z 02007KT 09/09 A2988 RMK A01 T00870087  RH  100%=      5-min Rain = 0
KTAS 161235Z 03008KT 09/09 A2987 RMK A01 T00860086  RH  100%=      5-min Rain = 0
KTAS 161236Z 03007KT 09/09 A2987 RMK A01 T00860086  RH  100%=      5-min Rain = 0
KTAS 161237Z 03007KT 09/09 A2988 RMK A01 T00860086  RH  100%=      5-min Rain = 0
KTAS 161238Z 03007KT 09/09 A2988 RMK A01 T00860086  RH  100%=      5-min Rain = 0
KTAS 161239Z 02007KT 09/09 A2988 RMK A01 T00860086  RH  100%=      5-min Rain = 0
KTAS 161240Z 02007KT 09/09 A2988 RMK A01 T00860086  RH  100%=      5-min Rain = 0
KTAS 161241Z 02007KT 09/09 A2988 RMK A01 T00870086  RH  100%=      5-min Rain = 0
KTAS 161242Z 02006KT 09/09 A2988 RMK A01 T00870087  RH  100%=      5-min Rain = 0
KTAS 161243Z 02007KT 09/09 A2988 RMK A01 T00870086  RH  100%=      5-min Rain = 0
KTAS 161244Z 02009KT 09/09 A2988 RMK A01 T00860086  RH  100%=      5-min Rain = 0
KTAS 161245Z 02009KT 09/09 A2988 RMK A01 T00860086  RH  100%=      5-min Rain = 0
KTAS 161246Z 03008KT 09/09 A2988 RMK A01 T00860086  RH  100%=      5-min Rain = 0
KTAS 161247Z 02008KT 09/09 A2988 RMK A01 T00860086  RH  100%=      5-min Rain = 0
KTAS 161248Z 02009KT 09/09 A2988 RMK A01 T00860086  RH  100%=      5-min Rain = 0
KTAS 161249Z 02008KT 09/09 A2988 RMK A01 T00860086  RH  100%=      5-min Rain = 0
KTAS 161250Z 03008KT 09/09 A2988 RMK A01 T00860086  RH  100%=      5-min Rain = 0
KTAS 161251Z 02009KT 09/09 A2988 RMK A01 T00860086  RH  100%=      5-min Rain = 0
KTAS 161252Z 02008KT 09/09 A2988 RMK A01 T00860086  RH  100%=      5-min Rain = 0
KTAS 161253Z 02008KT 09/09 A2988 RMK A01 T00860086  RH  100%=      5-min Rain = 0
KTAS 161254Z 03008KT 09/09 A2988 RMK A01 T00860086  RH  100%=      5-min Rain = 0
KTAS 161255Z 02008KT 09/09 A2988 RMK A01 T00860086  RH  100%=      5-min Rain = 0
KTAS 161256Z 02009KT 09/09 A2988 RMK A01 T00860086  RH  100%=      5-min Rain = 0
KTAS 161257Z 02009KT 09/09 A2988 RMK A01 T00850085  RH  100%=      5-min Rain = 0
KTAS 161258Z 02008KT 09/09 A2988 RMK A01 T00850085  RH  100%=      5-min Rain = 0
KTAS 161259Z 02008KT 09/09 A2988 RMK A01 T00850085  RH  100%=      5-min Rain = 0
KTAS 161300Z 02009KT 09/08 A2988 RMK A01 T00850084  RH  100%=      5-min Rain = 0
KTAS 161301Z 02008KT 09/08 A2989 RMK A01 T00850084  RH  100%=      5-min Rain = 0
KTAS 161302Z 03008KT 09/09 A2988 RMK A01 T00850085  RH  100%=      5-min Rain = 0
KTAS 161303Z 03008KT 09/08 A2988 RMK A01 T00850084  RH  100%=      5-min Rain = 0
KTAS 161304Z 02009KT 09/08 A2988 RMK A01 T00850084  RH  100%=      5-min Rain = 0
KTAS 161305Z 02009KT 09/08 A2989 RMK A01 T00850084  RH  100%=      5-min Rain = 0
KTAS 161306Z 03009KT 09/08 A2989 RMK A01 T00850084  RH  100%=      5-min Rain = 0
KTAS 161307Z 03009KT 09/09 A2989 RMK A01 T00850085  RH  100%=      5-min Rain = 0
KTAS 161308Z 03009KT 09/09 A2989 RMK A01 T00850085  RH  100%=      5-min Rain = 0
KTAS 161309Z 03008KT 09/08 A2989 RMK A01 T00850084  RH  100%=      5-min Rain = 0
KTAS 161310Z 02008KT 09/08 A2989 RMK A01 T00850084  RH  100%=      5-min Rain = 0
KTAS 161311Z 01008KT 09/08 A2989 RMK A01 T00850084  RH  100%=      5-min Rain = 0
KTAS 161312Z 02008KT 08/08 A2989 RMK A01 T00840084  RH  100%=      5-min Rain = 0
KTAS 161313Z 02008KT 09/08 A2989 RMK A01 T00850084  RH  100%=      5-min Rain = 0
KTAS 161314Z 02007KT 09/08 A2989 RMK A01 T00850084  RH  100%=      5-min Rain = 0
KTAS 161315Z 02006KT 09/08 A2989 RMK A01 T00850084  RH  100%=      5-min Rain = 0
KTAS 161316Z 02006KT 09/09 A2989 RMK A01 T00850085  RH  100%=      5-min Rain = 0
KTAS 161317Z 02007KT 09/09 A2989 RMK A01 T00850085  RH  100%=      5-min Rain = 0
KTAS 161318Z 02007KT 09/08 A2989 RMK A01 T00850084  RH  100%=      5-min Rain = 0
KTAS 161319Z 02006KT 09/08 A2989 RMK A01 T00850084  RH  100%=      5-min Rain = 0
KTAS 161320Z 02007KT 09/09 A2989 RMK A01 T00850085  RH  100%=      5-min Rain = 0
KTAS 161321Z 03007KT 09/08 A2989 RMK A01 T00850084  RH  100%=      5-min Rain = 0
KTAS 161322Z 03007KT 08/08 A2989 RMK A01 T00840084  RH  100%=      5-min Rain = 0
KTAS 161323Z 03008KT 08/08 A2989 RMK A01 T00840084  RH  100%=      5-min Rain = 0
KTAS 161324Z 03006KT 08/08 A2989 RMK A01 T00840083  RH  099%=      5-min Rain = 0
KTAS 161325Z 03006KT 09/08 A2989 RMK A01 T00850084  RH  099%=      5-min Rain = 0
KTAS 161326Z 02005KT 09/08 A2989 RMK A01 T00850084  RH  099%=      5-min Rain = 0
KTAS 161327Z 03007KT 09/09 A2989 RMK A01 T00850085  RH  099%=      5-min Rain = 0
KTAS 161328Z 03008KT 08/08 A2989 RMK A01 T00840083  RH  099%=      5-min Rain = 0
KTAS 161329Z 03007KT 08/08 A2989 RMK A01 T00840083  RH  099%=      5-min Rain = 0
KTAS 161330Z 03006KT 08/08 A299 RMK A01 T00840083  RH  099%=      5-min Rain = 0
KTAS 161331Z 03007KT 08/08 A299 RMK A01 T00840083  RH  099%=      5-min Rain = 0
KTAS 161332Z 03007KT 08/08 A299 RMK A01 T00840083  RH  099%=      5-min Rain = 0
KTAS 161333Z 03007KT 08/08 A299 RMK A01 T00840083  RH  099%=      5-min Rain = 0
KTAS 161334Z 03008KT 08/08 A299 RMK A01 T00840083  RH  099%=      5-min Rain = 0
KTAS 161335Z 03008KT 08/08 A299 RMK A01 T00840083  RH  099%=      5-min Rain = 0
KTAS 161336Z 03008KT 08/08 A299 RMK A01 T00840083  RH  099%=      5-min Rain = 0
KTAS 161337Z 03007KT 08/08 A299 RMK A01 T00840083  RH  099%=      5-min Rain = 0
KTAS 161338Z 03008KT 08/08 A299 RMK A01 T00840083  RH  099%=      5-min Rain = 0
KTAS 161339Z 03007KT 08/08 A299 RMK A01 T00840083  RH  099%=      5-min Rain = 0
KTAS 161340Z 03007KT 08/08 A299 RMK A01 T00840083  RH  099%=      5-min Rain = 0
KTAS 161341Z 03007KT 08/08 A299 RMK A01 T00840083  RH  099%=      5-min Rain = 0
KTAS 161342Z 03008KT 08/08 A299 RMK A01 T00840083  RH  099%=      5-min Rain = 0
KTAS 161343Z 02008KT 08/08 A299 RMK A01 T00840083  RH  099%=      5-min Rain = 0
KTAS 161344Z 02007KT 08/08 A299 RMK A01 T00840083  RH  099%=      5-min Rain = 0
KTAS 161345Z 02007KT 09/08 A299 RMK A01 T00850084  RH  099%=      5-min Rain = 0
KTAS 161346Z 02006KT 09/08 A299 RMK A01 T00850084  RH  099%=      5-min Rain = 0
KTAS 161347Z 01006KT 09/08 A299 RMK A01 T00850084  RH  099%=      5-min Rain = 0
KTAS 161348Z 01008KT 09/08 A299 RMK A01 T00850084  RH  099%=      5-min Rain = 0
KTAS 161349Z 02009KT 08/08 A299 RMK A01 T00840083  RH  099%=      5-min Rain = 0
KTAS 161350Z 01010KT 08/08 A299 RMK A01 T00830082  RH  099%=      5-min Rain = 0
KTAS 161351Z 01008KT 08/08 A299 RMK A01 T00830082  RH  099%=      5-min Rain = 0
KTAS 161352Z 02010KT 08/08 A299 RMK A01 T00830082  RH  099%=      5-min Rain = 0
KTAS 161353Z 02009KT 08/08 A299 RMK A01 T00830082  RH  099%=      5-min Rain = 0
KTAS 161354Z 02009KT 08/08 A299 RMK A01 T00830082  RH  099%=      5-min Rain = 0
KTAS 161355Z 01009KT 08/08 A299 RMK A01 T00830082  RH  099%=      5-min Rain = 0
KTAS 161356Z 01008KT 08/08 A299 RMK A01 T00840083  RH  099%=      5-min Rain = 0
KTAS 161357Z 02009KT 08/08 A2991 RMK A01 T00840083  RH  099%=      5-min Rain = 0
KTAS 161358Z 02008KT 08/08 A2991 RMK A01 T00840083  RH  099%=      5-min Rain = 0
KTAS 161359Z 01009KT 08/08 A2991 RMK A01 T00840083  RH  099%=      5-min Rain = 0
KTAS 161400Z 01009KT 08/08 A2991 RMK A01 T00840082  RH  099%=      5-min Rain = 0
KTAS 161401Z 01009KT 08/08 A2991 RMK A01 T00830082  RH  099%=      5-min Rain = 0
KTAS 161402Z 01008KT 08/08 A2991 RMK A01 T00840082  RH  099%=      5-min Rain = 0
KTAS 161403Z 02008KT 09/08 A2991 RMK A01 T00850083  RH  099%=      5-min Rain = 0
KTAS 161404Z 01007KT 09/08 A2991 RMK A01 T00860084  RH  099%=      5-min Rain = 0
KTAS 161405Z 01007KT 09/08 A2991 RMK A01 T00860084  RH  099%=      5-min Rain = 0
KTAS 161406Z 02008KT 09/08 A2991 RMK A01 T00850084  RH  099%=      5-min Rain = 0
KTAS 161407Z 02008KT 09/08 A2991 RMK A01 T00850083  RH  099%=      5-min Rain = 0
KTAS 161408Z 02009KT 09/08 A2991 RMK A01 T00850083  RH  099%=      5-min Rain = 0
KTAS 161409Z 01009KT 09/08 A2991 RMK A01 T00850083  RH  099%=      5-min Rain = 0
KTAS 161410Z 01008KT 09/08 A2991 RMK A01 T00850083  RH  099%=      5-min Rain = 0
KTAS 161411Z 01008KT 09/08 A2991 RMK A01 T00850083  RH  099%=      5-min Rain = 0
KTAS 161412Z 01006KT 09/08 A2991 RMK A01 T00850083  RH  099%=      5-min Rain = 0
KTAS 161413Z 00008KT 09/08 A2991 RMK A01 T00860084  RH  099%=      5-min Rain = 0
KTAS 161414Z 02008KT 09/08 A2991 RMK A01 T00860084  RH  099%=      5-min Rain = 0
KTAS 161415Z 02008KT 09/08 A2991 RMK A01 T00860084  RH  099%=      5-min Rain = 0
KTAS 161416Z 01008KT 09/08 A2991 RMK A01 T00860084  RH  099%=      5-min Rain = 0
KTAS 161417Z 02009KT 09/08 A2991 RMK A01 T00850083  RH  099%=      5-min Rain = 0
KTAS 161418Z 02009KT 09/08 A2991 RMK A01 T00850083  RH  099%=      5-min Rain = 0
KTAS 161419Z 02009KT 09/08 A2991 RMK A01 T00850083  RH  099%=      5-min Rain = 0
KTAS 161420Z 01008KT 09/08 A2991 RMK A01 T00850083  RH  098%=      5-min Rain = 0
KTAS 161421Z 02008KT 09/08 A2991 RMK A01 T00850083  RH  098%=      5-min Rain = 0
KTAS 161422Z 02009KT 09/08 A2991 RMK A01 T00850082  RH  098%=      5-min Rain = 0
KTAS 161423Z 02010KT 09/08 A2991 RMK A01 T00850083  RH  098%=      5-min Rain = 0
KTAS 161424Z 02009KT 08/08 A2991 RMK A01 T00840082  RH  098%=      5-min Rain = 0
KTAS 161425Z 02009KT 09/08 A2991 RMK A01 T00850082  RH  098%=      5-min Rain = 0
KTAS 161426Z 02009KT 09/08 A2991 RMK A01 T00850082  RH  098%=      5-min Rain = 0
KTAS 161427Z 02009KT 08/08 A2991 RMK A01 T00840081  RH  098%=      5-min Rain = 0
KTAS 161428Z 02007KT 08/08 A2991 RMK A01 T00840081  RH  098%=      5-min Rain = 0
KTAS 161429Z 02007KT 08/08 A2991 RMK A01 T00840081  RH  098%=      5-min Rain = 0
KTAS 161430Z 02008KT 09/08 A2991 RMK A01 T00850082  RH  098%=      5-min Rain = 0
KTAS 161431Z 02007KT 08/08 A2991 RMK A01 T00840082  RH  098%=      5-min Rain = 0
KTAS 161432Z 03007KT 09/08 A2991 RMK A01 T00850082  RH  098%=      5-min Rain = 0
KTAS 161433Z 03008KT 08/08 A2991 RMK A01 T00840081  RH  098%=      5-min Rain = 0
KTAS 161434Z 03007KT 08/08 A2991 RMK A01 T00830081  RH  098%=      5-min Rain = 0
KTAS 161435Z 01006KT 09/08 A2991 RMK A01 T00850082  RH  098%=      5-min Rain = 0
KTAS 161436Z 01007KT 09/08 A2991 RMK A01 T00850082  RH  098%=      5-min Rain = 0
KTAS 161437Z 01008KT 08/08 A2991 RMK A01 T00840082  RH  098%=      5-min Rain = 0
KTAS 161438Z 02007KT 08/08 A2991 RMK A01 T00840081  RH  098%=      5-min Rain = 0
KTAS 161439Z 02008KT 08/08 A2991 RMK A01 T00840081  RH  098%=      5-min Rain = 0
KTAS 161440Z 03007KT 08/08 A2991 RMK A01 T00840081  RH  098%=      5-min Rain = 0
KTAS 161441Z 03006KT 08/08 A2991 RMK A01 T00840081  RH  098%=      5-min Rain = 0
KTAS 161442Z 02006KT 09/08 A2991 RMK A01 T00850082  RH  098%=      5-min Rain = 0
KTAS 161443Z 02006KT 09/08 A2991 RMK A01 T00860083  RH  098%=      5-min Rain = 0
KTAS 161444Z 01007KT 09/08 A2992 RMK A01 T00860083  RH  098%=      5-min Rain = 0
KTAS 161445Z 01007KT 09/08 A2992 RMK A01 T00860083  RH  098%=      5-min Rain = 0
KTAS 161446Z 02006KT 09/08 A2992 RMK A01 T00860082  RH  098%=      5-min Rain = 0
KTAS 161447Z 02006KT 09/08 A2991 RMK A01 T00860083  RH  098%=      5-min Rain = 0
KTAS 161448Z 02006KT 09/08 A2991 RMK A01 T00870083  RH  098%=      5-min Rain = 0
KTAS 161449Z 03006KT 09/08 A2991 RMK A01 T00860082  RH  098%=      5-min Rain = 0
KTAS 161450Z 03007KT 09/08 A2991 RMK A01 T00860082  RH  098%=      5-min Rain = 0
KTAS 161451Z 03007KT 09/08 A2991 RMK A01 T00860082  RH  098%=      5-min Rain = 0
KTAS 161452Z 02006KT 09/08 A2991 RMK A01 T00870083  RH  098%=      5-min Rain = 0
KTAS 161453Z 01006KT 09/08 A2991 RMK A01 T00880084  RH  098%=      5-min Rain = 0
KTAS 161454Z 01006KT 09/08 A2991 RMK A01 T00860082  RH  097%=      5-min Rain = 0
KTAS 161455Z 01005KT 09/08 A2991 RMK A01 T00860082  RH  097%=      5-min Rain = 0
KTAS 161456Z 02004KT 09/08 A2991 RMK A01 T00860082  RH  097%=      5-min Rain = 0
KTAS 161457Z 01005KT 09/08 A2991 RMK A01 T00880084  RH  097%=      5-min Rain = 0
KTAS 161458Z 01006KT 09/08 A2991 RMK A01 T00860082  RH  097%=      5-min Rain = 0
KTAS 161459Z 01006KT 09/08 A2991 RMK A01 T00870083  RH  097%=      5-min Rain = 0
KTAS 161500Z 00005KT 09/08 A2991 RMK A01 T00880084  RH  097%=      5-min Rain = 0
KTAS 161501Z 01004KT 09/08 A2991 RMK A01 T00870083  RH  097%=      5-min Rain = 0
KTAS 161502Z 01005KT 09/08 A2991 RMK A01 T00870082  RH  097%=      5-min Rain = 0
KTAS 161503Z 00005KT 09/08 A2992 RMK A01 T00880084  RH  097%=      5-min Rain = 0
KTAS 161504Z 01005KT 09/08 A2992 RMK A01 T00880084  RH  097%=      5-min Rain = 0
KTAS 161505Z 01005KT 09/09 A2992 RMK A01 T00900086  RH  097%=      5-min Rain = 0
KTAS 161506Z 01006KT 09/09 A2992 RMK A01 T00890085  RH  097%=      5-min Rain = 0
KTAS 161507Z 01007KT 09/09 A2992 RMK A01 T00890085  RH  097%=      5-min Rain = 0
KTAS 161508Z 01006KT 09/08 A2992 RMK A01 T00890084  RH  097%=      5-min Rain = 0
KTAS 161509Z 01006KT 09/09 A2992 RMK A01 T00900086  RH  097%=      5-min Rain = 0
KTAS 161510Z 35005KT 09/09 A2992 RMK A01 T00920088  RH  097%=      5-min Rain = 0
KTAS 161511Z 35007KT 09/09 A2992 RMK A01 T00930089  RH  097%=      5-min Rain = 0
KTAS 161512Z 36006KT 09/09 A2991 RMK A01 T00920088  RH  097%=      5-min Rain = 0
KTAS 161513Z 01006KT 09/09 A2991 RMK A01 T00920087  RH  097%=      5-min Rain = 0
KTAS 161514Z 01007KT 09/09 A2992 RMK A01 T00920087  RH  097%=      5-min Rain = 0
KTAS 161515Z 00007KT 09/09 A2992 RMK A01 T00910086  RH  097%=      5-min Rain = 0
KTAS 161516Z 35005KT 09/09 A2992 RMK A01 T00900085  RH  096%=      5-min Rain = 0
KTAS 161517Z 36004KT 09/09 A2992 RMK A01 T00910086  RH  096%=      5-min Rain = 0
KTAS 161518Z 36006KT 09/09 A2992 RMK A01 T00920087  RH  097%=      5-min Rain = 0
KTAS 161519Z 00006KT 09/09 A2992 RMK A01 T00920087  RH  097%=      5-min Rain = 0
KTAS 161520Z 35006KT 09/09 A2992 RMK A01 T00930088  RH  097%=      5-min Rain = 0
KTAS 161521Z 35007KT 09/09 A2992 RMK A01 T00940090  RH  097%=      5-min Rain = 0
KTAS 161522Z 01007KT 09/09 A2992 RMK A01 T00930088  RH  097%=      5-min Rain = 0
KTAS 161523Z 35007KT 09/09 A2992 RMK A01 T00940088  RH  097%=      5-min Rain = 0
KTAS 161524Z 34007KT 09/09 A2992 RMK A01 T00920086  RH  096%=      5-min Rain = 0
KTAS 161525Z 34008KT 09/09 A2992 RMK A01 T00930087  RH  096%=      5-min Rain = 0
KTAS 161526Z 34006KT 09/09 A2992 RMK A01 T00940089  RH  097%=      5-min Rain = 0
KTAS 161527Z 34008KT 09/09 A2992 RMK A01 T00940089  RH  097%=      5-min Rain = 0
KTAS 161528Z 35008KT 10/09 A2992 RMK A01 T00950089  RH  096%=      5-min Rain = 0
KTAS 161529Z 35007KT 09/09 A2992 RMK A01 T00930088  RH  096%=      5-min Rain = 0
KTAS 161530Z 35009KT 09/09 A2992 RMK A01 T00940088  RH  096%=      5-min Rain = 0
KTAS 161531Z 34007KT 10/09 A2992 RMK A01 T00960091  RH  096%=      5-min Rain = 0
KTAS 161532Z 33008KT 10/09 A2992 RMK A01 T00970092  RH  096%=      5-min Rain = 0
KTAS 161533Z 35007KT 10/09 A2992 RMK A01 T00970092  RH  096%=      5-min Rain = 0
KTAS 161534Z 35006KT 10/09 A2992 RMK A01 T00990094  RH  096%=      5-min Rain = 0
KTAS 161535Z 34009KT 10/09 A2992 RMK A01 T00980092  RH  096%=      5-min Rain = 0
KTAS 161536Z 34008KT 10/09 A2992 RMK A01 T00970091  RH  096%=      5-min Rain = 0
KTAS 161537Z 35008KT 10/09 A2992 RMK A01 T00980091  RH  096%=      5-min Rain = 0
KTAS 161538Z 35007KT 10/09 A2992 RMK A01 T01000093  RH  096%=      5-min Rain = 0
KTAS 161539Z 36009KT 10/09 A2992 RMK A01 T00980092  RH  096%=      5-min Rain = 0
KTAS 161540Z 35009KT 10/09 A2993 RMK A01 T00970090  RH  095%=      5-min Rain = 0
KTAS 161541Z 36009KT 10/09 A2993 RMK A01 T00980091  RH  095%=      5-min Rain = 0
KTAS 161542Z 35012KT 10/09 A2993 RMK A01 T00980091  RH  096%=      5-min Rain = 0
KTAS 161543Z 35012KT 10/09 A2993 RMK A01 T00970090  RH  095%=      5-min Rain = 0
KTAS 161544Z 35012KT 10/09 A2993 RMK A01 T00970090  RH  095%=      5-min Rain = 0
KTAS 161545Z 35010KT 10/09 A2993 RMK A01 T00960089  RH  095%=      5-min Rain = 0
KTAS 161546Z 35009KT 10/09 A2993 RMK A01 T00970091  RH  095%=      5-min Rain = 0
KTAS 161547Z 35013KT 10/09 A2993 RMK A01 T00980092  RH  096%=      5-min Rain = 0
KTAS 161548Z 35011KT 10/09 A2993 RMK A01 T00960089  RH  095%=      5-min Rain = 0
KTAS 161549Z 35010KT 10/09 A2993 RMK A01 T00970090  RH  095%=      5-min Rain = 0
KTAS 161550Z 35013KT 10/09 A2993 RMK A01 T00960089  RH  095%=      5-min Rain = 0
KTAS 161551Z 34013KT 10/09 A2993 RMK A01 T00950087  RH  095%=      5-min Rain = 0
KTAS 161552Z 35012KT 10/09 A2993 RMK A01 T00950087  RH  095%=      5-min Rain = 0
KTAS 161553Z 35012KT 10/09 A2993 RMK A01 T00950087  RH  095%=      5-min Rain = 0
KTAS 161554Z 34012KT 09/09 A2993 RMK A01 T00940086  RH  095%=      5-min Rain = 0
KTAS 161555Z 35014KT 09/09 A2994 RMK A01 T00930085  RH  095%=      5-min Rain = 0
KTAS 161556Z 35012KT 09/09 A2994 RMK A01 T00930085  RH  095%=      5-min Rain = 0
KTAS 161557Z 34011KT 09/09 A2994 RMK A01 T00940086  RH  095%=      5-min Rain = 0
KTAS 161558Z 35014KT 09/09 A2994 RMK A01 T00930086  RH  095%=      5-min Rain = 0
KTAS 161559Z 35013KT 09/09 A2994 RMK A01 T00930085  RH  095%=      5-min Rain = 0
KTAS 161600Z 00011KT 09/09 A2994 RMK A01 T00930085  RH  095%=      5-min Rain = 0
KTAS 161601Z 00013KT 09/09 A2994 RMK A01 T00920085  RH  095%=      5-min Rain = 0
KTAS 161602Z 36011KT 09/09 A2994 RMK A01 T00930086  RH  095%=      5-min Rain = 0
KTAS 161603Z 36011KT 09/09 A2994 RMK A01 T00930085  RH  095%=      5-min Rain = 0
KTAS 161604Z 35012KT 09/09 A2994 RMK A01 T00930086  RH  095%=      5-min Rain = 0
KTAS 161605Z 35011KT 09/09 A2994 RMK A01 T00930085  RH  095%=      5-min Rain = 0
KTAS 161606Z 35010KT 10/09 A2994 RMK A01 T00950087  RH  095%=      5-min Rain = 0
KTAS 161607Z 35012KT 10/09 A2994 RMK A01 T00950088  RH  095%=      5-min Rain = 0
KTAS 161608Z 00012KT 09/09 A2994 RMK A01 T00940086  RH  095%=      5-min Rain = 0
KTAS 161609Z 01011KT 09/08 A2994 RMK A01 T00930084  RH  094%=      5-min Rain = 0
KTAS 161610Z 00011KT 09/09 A2994 RMK A01 T00930085  RH  095%=      5-min Rain = 0
KTAS 161611Z 36012KT 09/09 A2994 RMK A01 T00940086  RH  095%=      5-min Rain = 0
KTAS 161612Z 34012KT 09/09 A2994 RMK A01 T00940086  RH  095%=      5-min Rain = 0
KTAS 161613Z 34014KT 09/09 A2995 RMK A01 T00940085  RH  094%=      5-min Rain = 0
KTAS 161614Z 34013KT 09/08 A2995 RMK A01 T00930084  RH  094%=      5-min Rain = 0
KTAS 161615Z 35014KT 09/08 A2995 RMK A01 T00920083  RH  094%=      5-min Rain = 0
KTAS 161616Z 36013KT 09/08 A2995 RMK A01 T00900081  RH  094%=      5-min Rain = 0
KTAS 161617Z 01014KT 09/08 A2995 RMK A01 T00900081  RH  094%=      5-min Rain = 0
KTAS 161618Z 00014KT 09/08 A2995 RMK A01 T00900081  RH  094%=      5-min Rain = 0
KTAS 161619Z 35013KT 09/08 A2995 RMK A01 T00900082  RH  094%=      5-min Rain = 0
KTAS 161620Z 35014KT 09/08 A2995 RMK A01 T00890080  RH  094%=      5-min Rain = 0
KTAS 161621Z 35015KT 09/08 A2995 RMK A01 T00890080  RH  094%=      5-min Rain = 0
KTAS 161622Z 35015KT 09/08 A2995 RMK A01 T00890080  RH  094%=      5-min Rain = 0
KTAS 161623Z 36015KT 09/08 A2994 RMK A01 T00890080  RH  095%=      5-min Rain = 0
KTAS 161624Z 36014KT 09/08 A2994 RMK A01 T00890080  RH  095%=      5-min Rain = 0
KTAS 161625Z 00016KT 09/08 A2994 RMK A01 T00880080  RH  095%=      5-min Rain = 0
KTAS 161626Z 36015KT 09/08 A2995 RMK A01 T00870079  RH  094%=      5-min Rain = 0
KTAS 161627Z 36015KT 09/08 A2995 RMK A01 T00880080  RH  095%=      5-min Rain = 0
KTAS 161628Z 35013KT 09/08 A2995 RMK A01 T00880080  RH  095%=      5-min Rain = 0
KTAS 161629Z 35011KT 09/08 A2995 RMK A01 T00900082  RH  095%=      5-min Rain = 0
KTAS 161630Z 36013KT 09/08 A2995 RMK A01 T00900082  RH  095%=      5-min Rain = 0
KTAS 161631Z 36014KT 09/08 A2995 RMK A01 T00900082  RH  095%=      5-min Rain = 0
KTAS 161632Z 35014KT 09/08 A2995 RMK A01 T00890080  RH  094%=      5-min Rain = 0
KTAS 161633Z 34014KT 09/08 A2995 RMK A01 T00880079  RH  094%=      5-min Rain = 0
KTAS 161634Z 35015KT 09/08 A2995 RMK A01 T00870078  RH  094%=      5-min Rain = 0
KTAS 161635Z 36015KT 09/08 A2995 RMK A01 T00870078  RH  094%=      5-min Rain = 0
KTAS 161636Z 36016KT 09/08 A2995 RMK A01 T00860078  RH  094%=      5-min Rain = 0
KTAS 161637Z 35014KT 09/08 A2995 RMK A01 T00860077  RH  094%=      5-min Rain = 0
KTAS 161638Z 36012KT 09/08 A2995 RMK A01 T00870079  RH  095%=      5-min Rain = 0
KTAS 161639Z 35016KT 09/08 A2995 RMK A01 T00870079  RH  095%=      5-min Rain = 0
KTAS 161640Z 35014G19KT 09/08 A2995 RMK A01 T00870079  RH  094%=      5-min Rain = 0
KTAS 161641Z 36016KT 09/08 A2995 RMK A01 T00870079  RH  094%=      5-min Rain = 0
KTAS 161642Z 35015KT 09/08 A2995 RMK A01 T00880079  RH  094%=      5-min Rain = 0
KTAS 161643Z 35011KT 09/08 A2995 RMK A01 T00880079  RH  094%=      5-min Rain = 0
KTAS 161644Z 35012KT 09/08 A2995 RMK A01 T00890081  RH  095%=      5-min Rain = 0
KTAS 161645Z 35016KT 09/08 A2995 RMK A01 T00880079  RH  094%=      5-min Rain = 0
KTAS 161646Z 35014KT 09/08 A2995 RMK A01 T00850076  RH  094%=      5-min Rain = 0
KTAS 161647Z 35013KT 09/08 A2995 RMK A01 T00860077  RH  094%=      5-min Rain = 0
KTAS 161648Z 00009KT 09/08 A2995 RMK A01 T00890081  RH  095%=      5-min Rain = 0
KTAS 161649Z 01010KT 09/09 A2995 RMK A01 T00920085  RH  095%=      5-min Rain = 0
KTAS 161650Z 00012KT 09/08 A2995 RMK A01 T00920083  RH  095%=      5-min Rain = 0
KTAS 161651Z 00010KT 09/09 A2995 RMK A01 T00940086  RH  095%=      5-min Rain = 0
KTAS 161652Z 35011KT 10/09 A2995 RMK A01 T00950087  RH  095%=      5-min Rain = 0
KTAS 161653Z 35011KT 10/09 A2995 RMK A01 T00960087  RH  094%=      5-min Rain = 0
KTAS 161654Z 36013KT 10/09 A2995 RMK A01 T00960086  RH  094%=      5-min Rain = 0
KTAS 161655Z 36013KT 10/08 A2995 RMK A01 T00950084  RH  093%=      5-min Rain = 0
KTAS 161656Z 00012KT 10/08 A2994 RMK A01 T00960084  RH  092%=      5-min Rain = 0
KTAS 161657Z 01012KT 10/09 A2994 RMK A01 T00980087  RH  093%=      5-min Rain = 0
KTAS 161658Z 36010KT 10/09 A2994 RMK A01 T01000088  RH  093%=      5-min Rain = 0
KTAS 161659Z 36012KT 10/09 A2994 RMK A01 T01000088  RH  092%=      5-min Rain = 0
KTAS 161700Z 36011KT 10/09 A2994 RMK A01 T01000087  RH  091%=      5-min Rain = 0
KTAS 161701Z 00014KT 10/09 A2994 RMK A01 T01010087  RH  091%=      5-min Rain = 0
KTAS 161702Z 35010KT 10/09 A2994 RMK A01 T01010086  RH  091%=      5-min Rain = 0
KTAS 161703Z 35012KT 10/09 A2994 RMK A01 T01030089  RH  091%=      5-min Rain = 0
KTAS 161704Z 35011KT 11/09 A2994 RMK A01 T01050092  RH  091%=      5-min Rain = 0
KTAS 161705Z 36012KT 11/09 A2994 RMK A01 T01050089  RH  090%=      5-min Rain = 0
KTAS 161706Z 35013KT 11/09 A2994 RMK A01 T01050088  RH  090%=      5-min Rain = 0
KTAS 161707Z 35012KT 11/09 A2994 RMK A01 T01060090  RH  090%=      5-min Rain = 0
KTAS 161708Z 36013KT 11/09 A2994 RMK A01 T01070090  RH  089%=      5-min Rain = 0
KTAS 161709Z 35011KT 11/09 A2994 RMK A01 T01080090  RH  089%=      5-min Rain = 0
KTAS 161710Z 34012KT 11/09 A2994 RMK A01 T01080091  RH  089%=      5-min Rain = 0
KTAS 161711Z 35012KT 11/09 A2994 RMK A01 T01080090  RH  088%=      5-min Rain = 0
KTAS 161712Z 35012KT 11/09 A2994 RMK A01 T01100092  RH  089%=      5-min Rain = 0
KTAS 161713Z 35013KT 11/09 A2994 RMK A01 T01100091  RH  088%=      5-min Rain = 0
KTAS 161714Z 34013KT 11/09 A2994 RMK A01 T01100088  RH  087%=      5-min Rain = 0
KTAS 161715Z 34011KT 11/09 A2994 RMK A01 T01110090  RH  087%=      5-min Rain = 0
KTAS 161716Z 35012KT 11/09 A2994 RMK A01 T01130090  RH  086%=      5-min Rain = 0
KTAS 161717Z 36012KT 12/09 A2994 RMK A01 T01150094  RH  087%=      5-min Rain = 0
KTAS 161718Z 35012KT 12/09 A2994 RMK A01 T01160092  RH  086%=      5-min Rain = 0
KTAS 161719Z 34011KT 12/09 A2994 RMK A01 T01160092  RH  085%=      5-min Rain = 0
KTAS 161720Z 34010KT 12/10 A2994 RMK A01 T01200099  RH  087%=      5-min Rain = 0
KTAS 161721Z 34011KT 12/09 A2994 RMK A01 T01190093  RH  084%=      5-min Rain = 0
KTAS 161722Z 34013KT 12/09 A2994 RMK A01 T01180092  RH  084%=      5-min Rain = 0
KTAS 161723Z 35011KT 12/09 A2994 RMK A01 T01180092  RH  084%=      5-min Rain = 0
KTAS 161724Z 34009KT 12/10 A2994 RMK A01 T01210096  RH  085%=      5-min Rain = 0
KTAS 161725Z 35012KT 12/10 A2994 RMK A01 T01230099  RH  085%=      5-min Rain = 0
KTAS 161726Z 34012KT 12/10 A2994 RMK A01 T01240096  RH  083%=      5-min Rain = 0
KTAS 161727Z 35014KT 12/09 A2994 RMK A01 T01240092  RH  081%=      5-min Rain = 0
KTAS 161728Z 00011KT 12/09 A2994 RMK A01 T01220089  RH  080%=      5-min Rain = 0
KTAS 161729Z 34013KT 12/09 A2994 RMK A01 T01240093  RH  081%=      5-min Rain = 0
KTAS 161730Z 35012KT 13/09 A2994 RMK A01 T01250092  RH  081%=      5-min Rain = 0
KTAS 161731Z 36012KT 13/09 A2994 RMK A01 T01260092  RH  080%=      5-min Rain = 0
KTAS 161732Z 36012KT 13/09 A2994 RMK A01 T01250091  RH  080%=      5-min Rain = 0
KTAS 161733Z 00011KT 13/09 A2994 RMK A01 T01250092  RH  081%=      5-min Rain = 0
KTAS 161734Z 35012KT 13/09 A2994 RMK A01 T01250092  RH  080%=      5-min Rain = 0
KTAS 161735Z 34014KT 13/10 A2994 RMK A01 T01270095  RH  081%=      5-min Rain = 0
KTAS 161736Z 34012KT 13/09 A2994 RMK A01 T01270091  RH  079%=      5-min Rain = 0
KTAS 161737Z 35010KT 13/09 A2994 RMK A01 T01270092  RH  079%=      5-min Rain = 0
KTAS 161738Z 36011KT 13/10 A2994 RMK A01 T01280095  RH  080%=      5-min Rain = 0
KTAS 161739Z 34012KT 13/10 A2994 RMK A01 T01330101  RH  081%=      5-min Rain = 0
KTAS 161740Z 34011KT 13/10 A2994 RMK A01 T01340097  RH  078%=      5-min Rain = 0
KTAS 161741Z 35010KT 14/10 A2994 RMK A01 T01370101  RH  079%=      5-min Rain = 0
KTAS 161742Z 01012KT 14/10 A2994 RMK A01 T01390099  RH  077%=      5-min Rain = 0
KTAS 161743Z 01012KT 14/09 A2994 RMK A01 T01370094  RH  075%=      5-min Rain = 0
KTAS 161744Z 35013KT 14/09 A2994 RMK A01 T01350093  RH  075%=      5-min Rain = 0
KTAS 161745Z 35014KT 13/09 A2994 RMK A01 T01340090  RH  075%=      5-min Rain = 0
KTAS 161746Z 34013KT 13/09 A2994 RMK A01 T01320090  RH  076%=      5-min Rain = 0
KTAS 161747Z 34012KT 13/09 A2995 RMK A01 T01330091  RH  076%=      5-min Rain = 0
KTAS 161748Z 34011KT 14/09 A2995 RMK A01 T01350094  RH  076%=      5-min Rain = 0
KTAS 161749Z 36010G16KT 14/10 A2995 RMK A01 T01400102  RH  078%=      5-min Rain = 0
KTAS 161750Z 35015G20KT 14/10 A2995 RMK A01 T01410097  RH  075%=      5-min Rain = 0
KTAS 161751Z 36015KT 14/10 A2995 RMK A01 T01430097  RH  074%=      5-min Rain = 0
KTAS 161752Z 35015KT 14/09 A2995 RMK A01 T01430094  RH  072%=      5-min Rain = 0
KTAS 161753Z 35013KT 14/10 A2995 RMK A01 T01440098  RH  074%=      5-min Rain = 0
KTAS 161754Z 00014KT 15/10 A2995 RMK A01 T01450098  RH  073%=      5-min Rain = 0
KTAS 161755Z 36018KT 14/09 A2995 RMK A01 T01440094  RH  072%=      5-min Rain = 0
KTAS 161756Z 36019KT 14/09 A2995 RMK A01 T01390087  RH  071%=      5-min Rain = 0
KTAS 161757Z 00015KT 14/09 A2995 RMK A01 T01370088  RH  072%=      5-min Rain = 0
KTAS 161758Z 00016KT 14/09 A2995 RMK A01 T01370090  RH  073%=      5-min Rain = 0
KTAS 161759Z 35017KT 14/09 A2994 RMK A01 T01380092  RH  074%=      5-min Rain = 0
KTAS 161800Z 36016G21KT 14/09 A2995 RMK A01 T01380090  RH  073%=      5-min Rain = 0
KTAS 161801Z 01014KT 14/09 A2995 RMK A01 T01380090  RH  072%=      5-min Rain = 0
KTAS 161802Z 01018KT 14/09 A2994 RMK A01 T01420093  RH  073%=      5-min Rain = 0
KTAS 161803Z 00016KT 14/09 A2994 RMK A01 T01410090  RH  071%=      5-min Rain = 0
KTAS 161804Z 36014KT 14/09 A2995 RMK A01 T01390088  RH  071%=      5-min Rain = 0
KTAS 161805Z 01013G18KT 14/09 A2995 RMK A01 T01370088  RH  072%=      5-min Rain = 0
KTAS 161806Z 02016KT 14/09 A2994 RMK A01 T01370089  RH  073%=      5-min Rain = 0
KTAS 161807Z 01014KT 14/09 A2994 RMK A01 T01370087  RH  072%=      5-min Rain = 0
KTAS 161808Z 36013KT 14/09 A2994 RMK A01 T01390091  RH  072%=      5-min Rain = 0
KTAS 161809Z 35015KT 14/09 A2994 RMK A01 T01400089  RH  071%=      5-min Rain = 0
KTAS 161810Z 35014KT 14/09 A2994 RMK A01 T01380087  RH  071%=      5-min Rain = 0
KTAS 161811Z 36014KT 14/09 A2994 RMK A01 T01390091  RH  072%=      5-min Rain = 0
KTAS 161812Z 35013KT 14/09 A2994 RMK A01 T01390088  RH  071%=      5-min Rain = 0
KTAS 161813Z 00013KT 14/09 A2994 RMK A01 T01400090  RH  072%=      5-min Rain = 0
KTAS 161814Z 00013KT 14/09 A2994 RMK A01 T01410089  RH  071%=      5-min Rain = 0
KTAS 161815Z 00015KT 14/09 A2994 RMK A01 T01400087  RH  070%=      5-min Rain = 0
KTAS 161816Z 01014KT 14/09 A2994 RMK A01 T01390087  RH  071%=      5-min Rain = 0
KTAS 161817Z 02016KT 14/09 A2994 RMK A01 T01390088  RH  071%=      5-min Rain = 0
KTAS 161818Z 01015KT 14/09 A2994 RMK A01 T01390088  RH  071%=      5-min Rain = 0
KTAS 161819Z 01017KT 14/09 A2994 RMK A01 T01400089  RH  071%=      5-min Rain = 0
KTAS 161820Z 01013KT 14/09 A2994 RMK A01 T01400088  RH  071%=      5-min Rain = 0
KTAS 161821Z 01016KT 14/09 A2994 RMK A01 T01400088  RH  071%=      5-min Rain = 0
KTAS 161822Z 00014G20KT 14/09 A2994 RMK A01 T01400089  RH  072%=      5-min Rain = 0
KTAS 161823Z 01015KT 14/09 A2994 RMK A01 T01410091  RH  072%=      5-min Rain = 0
KTAS 161824Z 01015KT 14/09 A2994 RMK A01 T01400089  RH  071%=      5-min Rain = 0
KTAS 161825Z 01014KT 14/09 A2994 RMK A01 T01410092  RH  073%=      5-min Rain = 0
KTAS 161826Z 00016KT 14/09 A2994 RMK A01 T01410091  RH  072%=      5-min Rain = 0
KTAS 161827Z 35015KT 14/09 A2994 RMK A01 T01410090  RH  072%=      5-min Rain = 0
KTAS 161828Z 35016KT 14/09 A2994 RMK A01 T01420090  RH  071%=      5-min Rain = 0
KTAS 161829Z 36016G21KT 14/09 A2994 RMK A01 T01440091  RH  070%=      5-min Rain = 0
KTAS 161830Z 36017KT 15/09 A2994 RMK A01 T01450090  RH  070%=      5-min Rain = 0
KTAS 161831Z 36019KT 14/09 A2994 RMK A01 T01440087  RH  068%=      5-min Rain = 0
KTAS 161832Z 35016KT 15/09 A2994 RMK A01 T01450089  RH  069%=      5-min Rain = 0
KTAS 161833Z 36018G23KT 15/09 A2994 RMK A01 T01470093  RH  070%=      5-min Rain = 0
KTAS 161834Z 00017G24KT 15/09 A2994 RMK A01 T01460093  RH  070%=      5-min Rain = 0
KTAS 161835Z 00018KT 15/10 A2994 RMK A01 T01480096  RH  071%=      5-min Rain = 0
KTAS 161836Z 00019KT 15/09 A2994 RMK A01 T01470091  RH  069%=      5-min Rain = 0
KTAS 161837Z 00019KT 15/09 A2994 RMK A01 T01450088  RH  069%=      5-min Rain = 0
KTAS 161838Z 36016KT 15/09 A2994 RMK A01 T01450089  RH  069%=      5-min Rain = 0
KTAS 161839Z 01017KT 15/09 A2994 RMK A01 T01460090  RH  069%=      5-min Rain = 0
KTAS 161840Z 01015KT 15/09 A2994 RMK A01 T01470089  RH  068%=      5-min Rain = 0
KTAS 161841Z 36015KT 15/09 A2994 RMK A01 T01500093  RH  069%=      5-min Rain = 0
KTAS 161842Z 01016G21KT 15/09 A2994 RMK A01 T01520090  RH  066%=      5-min Rain = 0
KTAS 161843Z 00015KT 15/09 A2994 RMK A01 T01530091  RH  066%=      5-min Rain = 0
KTAS 161844Z 00016KT 15/09 A2994 RMK A01 T01520087  RH  065%=      5-min Rain = 0
KTAS 161845Z 00018KT 15/09 A2994 RMK A01 T01520087  RH  065%=      5-min Rain = 0
KTAS 161846Z 35018KT 15/08 A2994 RMK A01 T01500082  RH  064%=      5-min Rain = 0
KTAS 161847Z 35019KT 15/08 A2995 RMK A01 T01490082  RH  064%=      5-min Rain = 0
KTAS 161848Z 00019KT 15/09 A2995 RMK A01 T01510085  RH  065%=      5-min Rain = 0
KTAS 161849Z 01020KT 15/08 A2995 RMK A01 T01510084  RH  064%=      5-min Rain = 0
KTAS 161850Z 00019G25KT 15/08 A2995 RMK A01 T01500084  RH  064%=      5-min Rain = 0
KTAS 161851Z 01018G23KT 15/09 A2995 RMK A01 T01500086  RH  066%=      5-min Rain = 0
KTAS 161852Z 00021KT 15/09 A2995 RMK A01 T01510086  RH  065%=      5-min Rain = 0
KTAS 161853Z 00021KT 15/08 A2995 RMK A01 T01480084  RH  066%=      5-min Rain = 0
KTAS 161854Z 36018G23KT 15/08 A2995 RMK A01 T01470084  RH  066%=      5-min Rain = 0
KTAS 161855Z 00019KT 15/08 A2995 RMK A01 T01470083  RH  066%=      5-min Rain = 0
KTAS 161856Z 35019KT 15/08 A2995 RMK A01 T01470083  RH  065%=      5-min Rain = 0
KTAS 161857Z 36017G22KT 15/08 A2995 RMK A01 T01490083  RH  065%=      5-min Rain = 0
KTAS 161858Z 36018KT 15/08 A2995 RMK A01 T01510081  RH  063%=      5-min Rain = 0
KTAS 161859Z 36019KT 15/08 A2995 RMK A01 T01490077  RH  062%=      5-min Rain = 0
KTAS 161900Z 01017KT 15/08 A2995 RMK A01 T01480080  RH  063%=      5-min Rain = 0
KTAS 161901Z 01017KT 15/09 A2995 RMK A01 T01520085  RH  064%=      5-min Rain = 0
KTAS 161902Z 01017G22KT 15/08 A2995 RMK A01 T01530081  RH  062%=      5-min Rain = 0
KTAS 161903Z 01018KT 15/08 A2995 RMK A01 T01510079  RH  062%=      5-min Rain = 0
KTAS 161904Z 01016KT 15/08 A2995 RMK A01 T01500079  RH  062%=      5-min Rain = 0
KTAS 161905Z 00016G21KT 15/08 A2995 RMK A01 T01510078  RH  062%=      5-min Rain = 0
KTAS 161906Z 36018KT 15/08 A2995 RMK A01 T01500078  RH  062%=      5-min Rain = 0
KTAS 161907Z 00018KT 15/08 A2995 RMK A01 T01480075  RH  061%=      5-min Rain = 0
KTAS 161908Z 00015KT 15/08 A2995 RMK A01 T01490081  RH  064%=      5-min Rain = 0
KTAS 161909Z 35016G21KT 15/08 A2995 RMK A01 T01510082  RH  063%=      5-min Rain = 0
KTAS 161910Z 00017KT 15/08 A2995 RMK A01 T01500081  RH  063%=      5-min Rain = 0
KTAS 161911Z 00020KT 15/08 A2995 RMK A01 T01500082  RH  064%=      5-min Rain = 0
KTAS 161912Z 00017G22KT 15/08 A2995 RMK A01 T01480084  RH  065%=      5-min Rain = 0
KTAS 161913Z 36019G24KT 15/09 A2995 RMK A01 T01500087  RH  066%=      5-min Rain = 0
KTAS 161914Z 36021KT 15/08 A2995 RMK A01 T01480081  RH  064%=      5-min Rain = 0
KTAS 161915Z 36022KT 14/08 A2995 RMK A01 T01440079  RH  065%=      5-min Rain = 0
KTAS 161916Z 35021KT 14/08 A2995 RMK A01 T01420081  RH  066%=      5-min Rain = 0
KTAS 161917Z 36017G22KT 14/08 A2995 RMK A01 T01430083  RH  067%=      5-min Rain = 0
KTAS 161918Z 00017KT 15/09 A2995 RMK A01 T01480089  RH  067%=      5-min Rain = 0
KTAS 161919Z 00016G21KT 15/09 A2995 RMK A01 T01520087  RH  065%=      5-min Rain = 0
KTAS 161920Z 01017KT 15/08 A2995 RMK A01 T01500081  RH  063%=      5-min Rain = 0
KTAS 161921Z 01018KT 15/08 A2995 RMK A01 T01480082  RH  065%=      5-min Rain = 0
KTAS 161922Z 00017KT 15/08 A2995 RMK A01 T01460080  RH  064%=      5-min Rain = 0
KTAS 161923Z 35018KT 15/08 A2995 RMK A01 T01470082  RH  065%=      5-min Rain = 0
KTAS 161924Z 35018KT 15/08 A2995 RMK A01 T01460077  RH  064%=      5-min Rain = 0
KTAS 161925Z 35018KT 14/07 A2995 RMK A01 T01420074  RH  064%=      5-min Rain = 0
KTAS 161926Z 35019G24KT 14/08 A2995 RMK A01 T01420077  RH  065%=      5-min Rain = 0
KTAS 161927Z 36020KT 14/08 A2995 RMK A01 T01420078  RH  065%=      5-min Rain = 0
KTAS 161928Z 35019KT 14/08 A2995 RMK A01 T01410076  RH  065%=      5-min Rain = 0
KTAS 161929Z 35015G20KT 14/08 A2995 RMK A01 T01420079  RH  066%=      5-min Rain = 0
KTAS 161930Z 36019KT 15/08 A2995 RMK A01 T01480082  RH  065%=      5-min Rain = 0
KTAS 161931Z 36017KT 15/08 A2995 RMK A01 T01450075  RH  063%=      5-min Rain = 0
KTAS 161932Z 00015KT 15/08 A2995 RMK A01 T01470079  RH  064%=      5-min Rain = 0
KTAS 161933Z 00018KT 15/08 A2995 RMK A01 T01480075  RH  061%=      5-min Rain = 0
KTAS 161934Z 36017KT 14/07 A2995 RMK A01 T01440071  RH  061%=      5-min Rain = 0
KTAS 161935Z 00018KT 14/07 A2995 RMK A01 T01440072  RH  062%=      5-min Rain = 0
KTAS 161936Z 01016G21KT 14/07 A2995 RMK A01 T01430072  RH  062%=      5-min Rain = 0
KTAS 161937Z 01017KT 15/07 A2995 RMK A01 T01450074  RH  062%=      5-min Rain = 0
KTAS 161938Z 00016KT 15/07 A2995 RMK A01 T01470073  RH  061%=      5-min Rain = 0
KTAS 161939Z 35019KT 15/07 A2995 RMK A01 T01460074  RH  062%=      5-min Rain = 0
KTAS 161940Z 35019KT 14/08 A2995 RMK A01 T01430076  RH  064%=      5-min Rain = 0
KTAS 161941Z 34019G24KT 14/08 A2995 RMK A01 T01410076  RH  065%=      5-min Rain = 0
KTAS 161942Z 35019KT 14/07 A2995 RMK A01 T01380074  RH  065%=      5-min Rain = 0
KTAS 161943Z 36017KT 14/08 A2995 RMK A01 T01360075  RH  066%=      5-min Rain = 0
KTAS 161944Z 35016KT 14/07 A2995 RMK A01 T01350072  RH  066%=      5-min Rain = 0
KTAS 161945Z 01012KT 14/08 A2995 RMK A01 T01360075  RH  067%=      5-min Rain = 0
KTAS 161946Z 35013KT 14/08 A2995 RMK A01 T01410080  RH  066%=      5-min Rain = 0
KTAS 161947Z 00018KT 14/07 A2995 RMK A01 T01410073  RH  064%=      5-min Rain = 0
KTAS 161948Z 36016G21KT 14/07 A2995 RMK A01 T01370071  RH  064%=      5-min Rain = 0
KTAS 161949Z 00017KT 14/08 A2995 RMK A01 T01400075  RH  065%=      5-min Rain = 0
KTAS 161950Z 00016KT 14/07 A2995 RMK A01 T01410073  RH  064%=      5-min Rain = 0
KTAS 161951Z 00015KT 14/07 A2995 RMK A01 T01400071  RH  063%=      5-min Rain = 0
KTAS 161952Z 01014KT 14/07 A2995 RMK A01 T01410072  RH  063%=      5-min Rain = 0
KTAS 161953Z 01019KT 14/07 A2995 RMK A01 T01420073  RH  063%=      5-min Rain = 0
KTAS 161954Z 01018KT 14/07 A2995 RMK A01 T01380066  RH  062%=      5-min Rain = 0
KTAS 161955Z 01016G21KT 14/07 A2995 RMK A01 T01380071  RH  064%=      5-min Rain = 0
KTAS 161956Z 01016KT 14/08 A2995 RMK A01 T01420075  RH  064%=      5-min Rain = 0
KTAS 161957Z 01019KT 14/07 A2995 RMK A01 T01390067  RH  062%=      5-min Rain = 0
KTAS 161958Z 00016KT 14/07 A2995 RMK A01 T01370065  RH  062%=      5-min Rain = 0
KTAS 161959Z 01015KT 14/07 A2995 RMK A01 T01430073  RH  063%=      5-min Rain = 0
KTAS 162000Z 01016KT 14/07 A2995 RMK A01 T01440067  RH  060%=      5-min Rain = 0
KTAS 162001Z 01016KT 14/07 A2995 RMK A01 T01420067  RH  060%=      5-min Rain = 0
KTAS 162002Z 02017KT 14/07 A2995 RMK A01 T01420067  RH  060%=      5-min Rain = 0
KTAS 162003Z 01017KT 14/07 A2995 RMK A01 T01420067  RH  060%=      5-min Rain = 0
KTAS 162004Z 02016KT 14/07 A2995 RMK A01 T01420068  RH  061%=      5-min Rain = 0
KTAS 162005Z 02016KT 14/07 A2995 RMK A01 T01430067  RH  060%=      5-min Rain = 0
KTAS 162006Z 02015KT 14/07 A2995 RMK A01 T01410066  RH  061%=      5-min Rain = 0
KTAS 162007Z 02014KT 14/07 A2995 RMK A01 T01400068  RH  062%=      5-min Rain = 0
KTAS 162008Z 02015KT 14/07 A2995 RMK A01 T01400069  RH  062%=      5-min Rain = 0
KTAS 162009Z 01017KT 14/07 A2995 RMK A01 T01380068  RH  062%=      5-min Rain = 0
KTAS 162010Z 01014KT 14/07 A2995 RMK A01 T01390068  RH  062%=      5-min Rain = 0
KTAS 162011Z 02013KT 14/07 A2995 RMK A01 T01420069  RH  062%=      5-min Rain = 0
KTAS 162012Z 01014KT 14/07 A2996 RMK A01 T01430069  RH  061%=      5-min Rain = 0
KTAS 162013Z 03016KT 14/07 A2995 RMK A01 T01420067  RH  061%=      5-min Rain = 0
KTAS 162014Z 02016KT 14/07 A2996 RMK A01 T01400067  RH  062%=      5-min Rain = 0
KTAS 162015Z 01014KT 14/07 A2996 RMK A01 T01410069  RH  062%=      5-min Rain = 0
KTAS 162016Z 02012KT 14/07 A2996 RMK A01 T01410067  RH  061%=      5-min Rain = 0
KTAS 162017Z 02013KT 14/07 A2996 RMK A01 T01430072  RH  062%=      5-min Rain = 0
KTAS 162018Z 02015KT 15/07 A2996 RMK A01 T01450071  RH  061%=      5-min Rain = 0
KTAS 162019Z 02019KT 15/07 A2996 RMK A01 T01460071  RH  061%=      5-min Rain = 0
KTAS 162020Z 02014G19KT 14/07 A2996 RMK A01 T01430067  RH  060%=      5-min Rain = 0
KTAS 162021Z 01015KT 14/07 A2996 RMK A01 T01420068  RH  061%=      5-min Rain = 0
KTAS 162022Z 01016KT 14/07 A2996 RMK A01 T01410065  RH  060%=      5-min Rain = 0
KTAS 162023Z 01014KT 14/07 A2996 RMK A01 T01390065  RH  061%=      5-min Rain = 0
KTAS 162024Z 01015KT 14/07 A2996 RMK A01 T01380067  RH  062%=      5-min Rain = 0
KTAS 162025Z 02012G17KT 14/07 A2996 RMK A01 T01380067  RH  062%=      5-min Rain = 0
KTAS 162026Z 02013G20KT 14/07 A2996 RMK A01 T01380068  RH  062%=      5-min Rain = 0
KTAS 162027Z 01013KT 14/07 A2996 RMK A01 T01410069  RH  062%=      5-min Rain = 0
KTAS 162028Z 02013KT 14/07 A2996 RMK A01 T01430067  RH  060%=      5-min Rain = 0
KTAS 162029Z 01014KT 14/07 A2996 RMK A01 T01440066  RH  060%=      5-min Rain = 0
KTAS 162030Z 00014KT 14/07 A2996 RMK A01 T01430065  RH  059%=      5-min Rain = 0
KTAS 162031Z 00015KT 14/06 A2996 RMK A01 T01430064  RH  059%=      5-min Rain = 0
KTAS 162032Z 01013KT 14/07 A2996 RMK A01 T01440067  RH  060%=      5-min Rain = 0
KTAS 162033Z 02013KT 14/06 A2996 RMK A01 T01430062  RH  058%=      5-min Rain = 0
KTAS 162034Z 02015KT 14/07 A2996 RMK A01 T01420066  RH  060%=      5-min Rain = 0
KTAS 162035Z 03015KT 14/07 A2996 RMK A01 T01420068  RH  061%=      5-min Rain = 0
KTAS 162036Z 03016KT 14/07 A2996 RMK A01 T01400068  RH  062%=      5-min Rain = 0
KTAS 162037Z 01016KT 14/07 A2996 RMK A01 T01380068  RH  063%=      5-min Rain = 0
KTAS 162038Z 01016KT 14/07 A2996 RMK A01 T01380067  RH  062%=      5-min Rain = 0
KTAS 162039Z 02014KT 14/07 A2996 RMK A01 T01370067  RH  063%=      5-min Rain = 0
KTAS 162040Z 01014KT 14/07 A2996 RMK A01 T01380070  RH  063%=      5-min Rain = 0
KTAS 162041Z 01016KT 14/07 A2996 RMK A01 T01390067  RH  062%=      5-min Rain = 0
KTAS 162042Z 01016KT 14/07 A2996 RMK A01 T01380066  RH  062%=      5-min Rain = 0
KTAS 162043Z 03014KT 14/06 A2996 RMK A01 T01350064  RH  062%=      5-min Rain = 0
KTAS 162044Z 03015KT 13/07 A2996 RMK A01 T01340065  RH  063%=      5-min Rain = 0
KTAS 162045Z 03015G20KT 14/07 A2996 RMK A01 T01350065  RH  063%=      5-min Rain = 0
KTAS 162046Z 02015KT 14/06 A2996 RMK A01 T01350064  RH  062%=      5-min Rain = 0
KTAS 162047Z 01015KT 14/06 A2996 RMK A01 T01350064  RH  062%=      5-min Rain = 0
KTAS 162048Z 02013KT 14/07 A2996 RMK A01 T01360065  RH  062%=      5-min Rain = 0
KTAS 162049Z 01014KT 14/07 A2996 RMK A01 T01400069  RH  062%=      5-min Rain = 0
KTAS 162050Z 02015KT 14/07 A2996 RMK A01 T01420067  RH  061%=      5-min Rain = 0
KTAS 162051Z 02013KT 14/07 A2996 RMK A01 T01430069  RH  061%=      5-min Rain = 0
KTAS 162052Z 02014KT 15/07 A2996 RMK A01 T01450067  RH  060%=      5-min Rain = 0
KTAS 162053Z 02014KT 15/06 A2996 RMK A01 T01450064  RH  058%=      5-min Rain = 0
KTAS 162054Z 02011G16KT 14/06 A2996 RMK A01 T01430061  RH  057%=      5-min Rain = 0
KTAS 162055Z 01010KT 14/07 A2996 RMK A01 T01430065  RH  059%=      5-min Rain = 0
KTAS 162056Z 01012KT 15/07 A2996 RMK A01 T01460065  RH  058%=      5-min Rain = 0
KTAS 162057Z 01012KT 15/06 A2996 RMK A01 T01450062  RH  058%=      5-min Rain = 0
KTAS 162058Z 01014KT 15/06 A2996 RMK A01 T01450063  RH  058%=      5-min Rain = 0
KTAS 162059Z 36014KT 15/07 A2996 RMK A01 T01470065  RH  058%=      5-min Rain = 0
KTAS 162100Z 35014KT 15/06 A2996 RMK A01 T01480063  RH  057%=      5-min Rain = 0
KTAS 162101Z 00015KT 15/06 A2996 RMK A01 T01480064  RH  057%=      5-min Rain = 0
KTAS 162102Z 00012KT 15/06 A2996 RMK A01 T01480063  RH  057%=      5-min Rain = 0
KTAS 162103Z 01010KT 15/06 A2996 RMK A01 T01470063  RH  057%=      5-min Rain = 0
KTAS 162104Z 01012G17KT 15/06 A2996 RMK A01 T01480063  RH  057%=      5-min Rain = 0
KTAS 162105Z 01014G19KT 15/06 A2996 RMK A01 T01470063  RH  057%=      5-min Rain = 0
KTAS 162106Z 02014KT 15/06 A2996 RMK A01 T01450061  RH  057%=      5-min Rain = 0
KTAS 162107Z 02015KT 14/06 A2996 RMK A01 T01440061  RH  057%=      5-min Rain = 0
KTAS 162108Z 02014KT 15/07 A2996 RMK A01 T01460065  RH  058%=      5-min Rain = 0
KTAS 162109Z 02013KT 15/06 A2996 RMK A01 T01450062  RH  057%=      5-min Rain = 0
KTAS 162110Z 03010KT 15/06 A2996 RMK A01 T01450064  RH  058%=      5-min Rain = 0
KTAS 162111Z 03010KT 15/06 A2995 RMK A01 T01460064  RH  058%=      5-min Rain = 0
KTAS 162112Z 02011KT 15/07 A2995 RMK A01 T01500067  RH  058%=      5-min Rain = 0
KTAS 162113Z 01013KT 15/06 A2996 RMK A01 T01520064  RH  056%=      5-min Rain = 0
KTAS 162114Z 02016KT 15/06 A2995 RMK A01 T01530063  RH  055%=      5-min Rain = 0
KTAS 162115Z 00014KT 15/06 A2996 RMK A01 T01530064  RH  055%=      5-min Rain = 0
KTAS 162116Z 36015KT 15/06 A2996 RMK A01 T01530059  RH  053%=      5-min Rain = 0
KTAS 162117Z 36013KT 15/06 A2996 RMK A01 T01530062  RH  054%=      5-min Rain = 0
KTAS 162118Z 00013KT 16/06 A2996 RMK A01 T01570064  RH  054%=      5-min Rain = 0
KTAS 162119Z 02015KT 16/06 A2995 RMK A01 T01580062  RH  053%=      5-min Rain = 0
KTAS 162120Z 01015G23KT 16/06 A2995 RMK A01 T01600063  RH  052%=      5-min Rain = 0
KTAS 162121Z 02017KT 16/06 A2995 RMK A01 T01630063  RH  051%=      5-min Rain = 0
KTAS 162122Z 02017KT 16/06 A2995 RMK A01 T01580057  RH  051%=      5-min Rain = 0
KTAS 162123Z 01015KT 15/06 A2995 RMK A01 T01530056  RH  053%=      5-min Rain = 0
KTAS 162124Z 02014KT 15/06 A2995 RMK A01 T01500057  RH  053%=      5-min Rain = 0
KTAS 162125Z 03013KT 15/06 A2995 RMK A01 T01500056  RH  053%=      5-min Rain = 0
KTAS 162126Z 02014KT 15/06 A2995 RMK A01 T01510059  RH  054%=      5-min Rain = 0
KTAS 162127Z 02013KT 15/06 A2995 RMK A01 T01500055  RH  053%=      5-min Rain = 0
KTAS 162128Z 02011KT 15/06 A2995 RMK A01 T01490057  RH  054%=      5-min Rain = 0
KTAS 162129Z 02013KT 15/06 A2995 RMK A01 T01510058  RH  054%=      5-min Rain = 0
KTAS 162130Z 02012KT 15/06 A2995 RMK A01 T01500060  RH  055%=      5-min Rain = 0
KTAS 162131Z 03012G17KT 15/06 A2995 RMK A01 T01490061  RH  055%=      5-min Rain = 0
KTAS 162132Z 03015KT 15/06 A2995 RMK A01 T01480060  RH  056%=      5-min Rain = 0
KTAS 162133Z 05013KT 15/06 A2995 RMK A01 T01460061  RH  057%=      5-min Rain = 0
KTAS 162134Z 04016KT 15/06 A2995 RMK A01 T01500064  RH  056%=      5-min Rain = 0
KTAS 162135Z 04013KT 15/06 A2995 RMK A01 T01520061  RH  055%=      5-min Rain = 0
KTAS 162136Z 04012KT 15/06 A2995 RMK A01 T01540063  RH  054%=      5-min Rain = 0
KTAS 162137Z 04013KT 16/06 A2995 RMK A01 T01580064  RH  053%=      5-min Rain = 0
KTAS 162138Z 00015KT 16/06 A2995 RMK A01 T01630064  RH  052%=      5-min Rain = 0
KTAS 162139Z 36013KT 16/06 A2995 RMK A01 T01640061  RH  051%=      5-min Rain = 0
KTAS 162140Z 00013KT 17/06 A2995 RMK A01 T01660060  RH  050%=      5-min Rain = 0
KTAS 162141Z 01017KT 16/06 A2995 RMK A01 T01630058  RH  050%=      5-min Rain = 0
KTAS 162142Z 01015KT 16/06 A2995 RMK A01 T01590057  RH  051%=      5-min Rain = 0
KTAS 162143Z 00016KT 16/06 A2995 RMK A01 T01560056  RH  051%=      5-min Rain = 0
KTAS 162144Z 02017G22KT 16/06 A2995 RMK A01 T01550058  RH  053%=      5-min Rain = 0
KTAS 162145Z 04013KT 15/06 A2995 RMK A01 T01520059  RH  054%=      5-min Rain = 0
KTAS 162146Z 03011KT 15/06 A2995 RMK A01 T01500061  RH  055%=      5-min Rain = 0
KTAS 162147Z 04011KT 15/06 A2995 RMK A01 T01500060  RH  055%=      5-min Rain = 0
KTAS 162148Z 02009G15KT 15/06 A2994 RMK A01 T01510061  RH  055%=      5-min Rain = 0
KTAS 162149Z 01011KT 15/06 A2995 RMK A01 T01530057  RH  053%=      5-min Rain = 0
KTAS 162150Z 36014KT 15/05 A2995 RMK A01 T01540053  RH  051%=      5-min Rain = 0
KTAS 162151Z 00012KT 15/06 A2995 RMK A01 T01520055  RH  052%=      5-min Rain = 0
KTAS 162152Z 01014KT 15/06 A2995 RMK A01 T01530059  RH  053%=      5-min Rain = 0
KTAS 162153Z 03015KT 16/06 A2995 RMK A01 T01590062  RH  053%=      5-min Rain = 0
KTAS 162154Z 04014KT 16/06 A2995 RMK A01 T01590059  RH  052%=      5-min Rain = 0
KTAS 162155Z 04014KT 16/06 A2995 RMK A01 T01590062  RH  052%=      5-min Rain = 0
KTAS 162156Z 04015G20KT 16/06 A2995 RMK A01 T01600063  RH  052%=      5-min Rain = 0
KTAS 162157Z 04018KT 16/06 A2995 RMK A01 T01560057  RH  051%=      5-min Rain = 0
KTAS 162158Z 02014KT 15/06 A2995 RMK A01 T01530057  RH  053%=      5-min Rain = 0
KTAS 162159Z 03017KT 16/06 A2995 RMK A01 T01550059  RH  053%=      5-min Rain = 0
KTAS 162200Z 04016G21KT 16/06 A2995 RMK A01 T01560059  RH  052%=      5-min Rain = 0
KTAS 162201Z 04013KT 16/06 A2995 RMK A01 T01560059  RH  052%=      5-min Rain = 0
KTAS 162202Z 04016KT 16/06 A2995 RMK A01 T01590063  RH  053%=      5-min Rain = 0
KTAS 162203Z 04015KT 16/06 A2995 RMK A01 T01570057  RH  051%=      5-min Rain = 0
KTAS 162204Z 04016KT 16/06 A2995 RMK A01 T01570060  RH  052%=      5-min Rain = 0
KTAS 162205Z 03016KT 16/06 A2995 RMK A01 T01580061  RH  052%=      5-min Rain = 0
KTAS 162206Z 03013KT 16/06 A2995 RMK A01 T01580059  RH  052%=      5-min Rain = 0
KTAS 162207Z 03014KT 16/06 A2995 RMK A01 T01600061  RH  052%=      5-min Rain = 0
KTAS 162208Z 02015KT 16/06 A2995 RMK A01 T01610058  RH  051%=      5-min Rain = 0
KTAS 162209Z 03014G19KT 15/05 A2995 RMK A01 T01540053  RH  051%=      5-min Rain = 0
KTAS 162210Z 02015KT 15/05 A2995 RMK A01 T01510054  RH  052%=      5-min Rain = 0
KTAS 162211Z 02014KT 15/05 A2995 RMK A01 T01490053  RH  053%=      5-min Rain = 0
KTAS 162212Z 01013KT 15/05 A2995 RMK A01 T01480053  RH  053%=      5-min Rain = 0
KTAS 162213Z 02017KT 15/05 A2995 RMK A01 T01480053  RH  053%=      5-min Rain = 0
KTAS 162214Z 03016KT 15/05 A2995 RMK A01 T01460052  RH  054%=      5-min Rain = 0
KTAS 162215Z 03017KT 15/05 A2995 RMK A01 T01460054  RH  054%=      5-min Rain = 0
KTAS 162216Z 02017KT 15/05 A2995 RMK A01 T01450051  RH  053%=      5-min Rain = 0
KTAS 162217Z 02014KT 15/05 A2995 RMK A01 T01460053  RH  054%=      5-min Rain = 0
KTAS 162218Z 01017KT 15/05 A2995 RMK A01 T01510054  RH  053%=      5-min Rain = 0
KTAS 162219Z 02016KT 15/05 A2995 RMK A01 T01530052  RH  051%=      5-min Rain = 0
KTAS 162220Z 02015KT 15/05 A2995 RMK A01 T01520049  RH  050%=      5-min Rain = 0
KTAS 162221Z 02017KT 15/05 A2995 RMK A01 T01520053  RH  051%=      5-min Rain = 0
KTAS 162222Z 03017KT 16/06 A2995 RMK A01 T01550055  RH  051%=      5-min Rain = 0
KTAS 162223Z 03017KT 15/05 A2996 RMK A01 T01520051  RH  051%=      5-min Rain = 0
KTAS 162224Z 03018KT 15/05 A2996 RMK A01 T01480051  RH  052%=      5-min Rain = 0
KTAS 162225Z 02018KT 15/05 A2996 RMK A01 T01460051  RH  053%=      5-min Rain = 0
KTAS 162226Z 02018KT 14/05 A2996 RMK A01 T01440049  RH  053%=      5-min Rain = 0
KTAS 162227Z 03014KT 14/05 A2996 RMK A01 T01420049  RH  053%=      5-min Rain = 0
KTAS 162228Z 03015KT 14/05 A2996 RMK A01 T01420050  RH  054%=      5-min Rain = 0
KTAS 162229Z 03015G21KT 14/05 A2996 RMK A01 T01430052  RH  054%=      5-min Rain = 0
KTAS 162230Z 02017G22KT 14/05 A2996 RMK A01 T01440052  RH  054%=      5-min Rain = 0
KTAS 162231Z 04015G20KT 15/06 A2996 RMK A01 T01460056  RH  055%=      5-min Rain = 0
KTAS 162232Z 04018KT 15/05 A2996 RMK A01 T01490054  RH  053%=      5-min Rain = 0
KTAS 162233Z 03015KT 15/05 A2996 RMK A01 T01500054  RH  053%=      5-min Rain = 0
KTAS 162234Z 03017KT 15/05 A2996 RMK A01 T01490052  RH  052%=      5-min Rain = 0
KTAS 162235Z 03013KT 15/05 A2996 RMK A01 T01470052  RH  053%=      5-min Rain = 0
KTAS 162236Z 04018KT 15/06 A2995 RMK A01 T01500055  RH  053%=      5-min Rain = 0
KTAS 162237Z 02017KT 15/05 A2996 RMK A01 T01510051  RH  051%=      5-min Rain = 0
KTAS 162238Z 03015G20KT 15/05 A2996 RMK A01 T01490049  RH  051%=      5-min Rain = 0
KTAS 162239Z 02018KT 15/05 A2996 RMK A01 T01480049  RH  052%=      5-min Rain = 0
KTAS 162240Z 02018KT 15/05 A2996 RMK A01 T01470049  RH  052%=      5-min Rain = 0
KTAS 162241Z 02014KT 15/05 A2996 RMK A01 T01460052  RH  053%=      5-min Rain = 0
KTAS 162242Z 03016KT 15/05 A2996 RMK A01 T01480054  RH  053%=      5-min Rain = 0
KTAS 162243Z 03015KT 15/05 A2996 RMK A01 T01490053  RH  052%=      5-min Rain = 0
KTAS 162244Z 03016KT 15/05 A2996 RMK A01 T01500054  RH  052%=      5-min Rain = 0
KTAS 162245Z 04018KT 15/05 A2996 RMK A01 T01510052  RH  052%=      5-min Rain = 0
KTAS 162246Z 03014G20KT 15/05 A2996 RMK A01 T01500052  RH  052%=      5-min Rain = 0
KTAS 162247Z 02015KT 15/06 A2996 RMK A01 T01540056  RH  052%=      5-min Rain = 0
KTAS 162248Z 03015G20KT 16/05 A2996 RMK A01 T01560051  RH  050%=      5-min Rain = 0
KTAS 162249Z 03013KT 16/05 A2996 RMK A01 T01560053  RH  050%=      5-min Rain = 0
KTAS 162250Z 03014KT 16/05 A2996 RMK A01 T01560049  RH  049%=      5-min Rain = 0
KTAS 162251Z 02014KT 15/05 A2996 RMK A01 T01540048  RH  049%=      5-min Rain = 0
KTAS 162252Z 02013KT 15/05 A2996 RMK A01 T01540048  RH  049%=      5-min Rain = 0
KTAS 162253Z 03017KT 15/05 A2996 RMK A01 T01530048  RH  049%=      5-min Rain = 0
KTAS 162254Z 03015KT 15/05 A2996 RMK A01 T01500048  RH  050%=      5-min Rain = 0
KTAS 162255Z 03017KT 15/05 A2996 RMK A01 T01490049  RH  051%=      5-min Rain = 0
KTAS 162256Z 03020KT 15/05 A2996 RMK A01 T01470047  RH  051%=      5-min Rain = 0
KTAS 162257Z 02018KT 14/05 A2997 RMK A01 T01440045  RH  051%=      5-min Rain = 0
KTAS 162258Z 02014KT 14/05 A2997 RMK A01 T01430046  RH  052%=      5-min Rain = 0
KTAS 162259Z 02018KT 15/05 A2997 RMK A01 T01460049  RH  052%=      5-min Rain = 0
KTAS 162300Z 02018G23KT 15/05 A2997 RMK A01 T01470047  RH  051%=      5-min Rain = 0
KTAS 162301Z 02017KT 15/05 A2997 RMK A01 T01450045  RH  051%=      5-min Rain = 0
KTAS 162302Z 01018G23KT 15/05 A2997 RMK A01 T01460047  RH  051%=      5-min Rain = 0
KTAS 162303Z 02015G20KT 15/05 A2997 RMK A01 T01480046  RH  050%=      5-min Rain = 0
KTAS 162304Z 03015KT 15/05 A2997 RMK A01 T01510049  RH  051%=      5-min Rain = 0
KTAS 162305Z 04014KT 15/05 A2997 RMK A01 T01530047  RH  049%=      5-min Rain = 0
KTAS 162306Z 03017KT 15/05 A2997 RMK A01 T01530045  RH  048%=      5-min Rain = 0
KTAS 162307Z 03017KT 15/04 A2997 RMK A01 T01510043  RH  048%=      5-min Rain = 0
KTAS 162308Z 01015KT 15/04 A2997 RMK A01 T01500043  RH  049%=      5-min Rain = 0
KTAS 162309Z 01016KT 15/05 A2997 RMK A01 T01520045  RH  049%=      5-min Rain = 0
KTAS 162310Z 02019KT 15/04 A2997 RMK A01 T01530044  RH  048%=      5-min Rain = 0
KTAS 162311Z 02018KT 15/05 A2997 RMK A01 T01530047  RH  049%=      5-min Rain = 0
KTAS 162312Z 02018G23KT 15/05 A2997 RMK A01 T01530045  RH  049%=      5-min Rain = 0
KTAS 162313Z 02020KT 15/05 A2997 RMK A01 T01520045  RH  049%=      5-min Rain = 0
KTAS 162314Z 02021KT 15/04 A2997 RMK A01 T01510042  RH  048%=      5-min Rain = 0
KTAS 162315Z 02020KT 15/04 A2997 RMK A01 T01490041  RH  048%=      5-min Rain = 0
KTAS 162316Z 01020KT 15/04 A2997 RMK A01 T01480041  RH  049%=      5-min Rain = 0
KTAS 162317Z 01021KT 15/04 A2997 RMK A01 T01470040  RH  049%=      5-min Rain = 0
KTAS 162318Z 01019KT 15/04 A2997 RMK A01 T01450039  RH  049%=      5-min Rain = 0
KTAS 162319Z 01015G21KT 15/04 A2997 RMK A01 T01450041  RH  050%=      5-min Rain = 0
KTAS 162320Z 02014KT 15/05 A2997 RMK A01 T01490045  RH  050%=      5-min Rain = 0
KTAS 162321Z 02016KT 15/04 A2997 RMK A01 T01490041  RH  048%=      5-min Rain = 0
KTAS 162322Z 02018KT 15/04 A2997 RMK A01 T01460040  RH  049%=      5-min Rain = 0
KTAS 162323Z 01019KT 15/04 A2997 RMK A01 T01450041  RH  050%=      5-min Rain = 0
KTAS 162324Z 01017KT 14/04 A2997 RMK A01 T01430041  RH  050%=      5-min Rain = 0
KTAS 162325Z 02020G26KT 15/04 A2997 RMK A01 T01450043  RH  050%=      5-min Rain = 0
KTAS 162326Z 02021KT 14/04 A2997 RMK A01 T01440041  RH  050%=      5-min Rain = 0
KTAS 162327Z 01019KT 14/04 A2997 RMK A01 T01430043  RH  051%=      5-min Rain = 0
KTAS 162328Z 02018KT 14/04 A2998 RMK A01 T01440043  RH  051%=      5-min Rain = 0
KTAS 162329Z 02020KT 14/04 A2998 RMK A01 T01440041  RH  050%=      5-min Rain = 0
KTAS 162330Z 02019G24KT 14/04 A2998 RMK A01 T01430041  RH  050%=      5-min Rain = 0
KTAS 162331Z 02019KT 14/04 A2997 RMK A01 T01420039  RH  050%=      5-min Rain = 0
KTAS 162332Z 02019KT 14/04 A2997 RMK A01 T01420040  RH  050%=      5-min Rain = 0
KTAS 162333Z 02022KT 14/04 A2997 RMK A01 T01420039  RH  050%=      5-min Rain = 0
KTAS 162334Z 03020KT 14/04 A2997 RMK A01 T01410038  RH  050%=      5-min Rain = 0
KTAS 162335Z 03021KT 14/04 A2997 RMK A01 T01400038  RH  050%=      5-min Rain = 0
KTAS 162336Z 03017KT 14/04 A2998 RMK A01 T01390038  RH  051%=      5-min Rain = 0
KTAS 162337Z 03019KT 14/04 A2998 RMK A01 T01390039  RH  051%=      5-min Rain = 0
KTAS 162338Z 03018KT 14/04 A2998 RMK A01 T01390039  RH  051%=      5-min Rain = 0
KTAS 162339Z 02020KT 14/04 A2998 RMK A01 T01370038  RH  051%=      5-min Rain = 0
KTAS 162340Z 03018KT 14/04 A2998 RMK A01 T01360039  RH  052%=      5-min Rain = 0
KTAS 162341Z 02018KT 14/04 A2998 RMK A01 T01350039  RH  052%=      5-min Rain = 0
KTAS 162342Z 02021KT 13/04 A2998 RMK A01 T01340038  RH  052%=      5-min Rain = 0
KTAS 162343Z 02018G23KT 13/04 A2998 RMK A01 T01320037  RH  052%=      5-min Rain = 0
KTAS 162344Z 02016KT 13/04 A2998 RMK A01 T01320038  RH  053%=      5-min Rain = 0
KTAS 162345Z 02017KT 13/04 A2998 RMK A01 T01320038  RH  053%=      5-min Rain = 0
KTAS 162346Z 01020KT 13/04 A2998 RMK A01 T01330038  RH  053%=      5-min Rain = 0
KTAS 162347Z 01018G23KT 13/04 A2998 RMK A01 T01320036  RH  052%=      5-min Rain = 0
KTAS 162348Z 01017KT 13/04 A2999 RMK A01 T01320036  RH  052%=      5-min Rain = 0
KTAS 162349Z 02017KT 13/04 A2998 RMK A01 T01310035  RH  052%=      5-min Rain = 0
KTAS 162350Z 01017KT 13/04 A2998 RMK A01 T01310036  RH  052%=      5-min Rain = 0
KTAS 162351Z 01019KT 13/04 A2999 RMK A01 T01310036  RH  052%=      5-min Rain = 0
KTAS 162352Z 02016KT 13/04 A2999 RMK A01 T01310036  RH  052%=      5-min Rain = 0
KTAS 162353Z 02013G18KT 13/04 A2999 RMK A01 T01320038  RH  053%=      5-min Rain = 0
KTAS 162354Z 01016KT 13/04 A2999 RMK A01 T01320039  RH  053%=      5-min Rain = 0
KTAS 162355Z 01017KT 13/04 A2999 RMK A01 T01310037  RH  053%=      5-min Rain = 0
KTAS 162356Z 02014KT 13/04 A2999 RMK A01 T01300037  RH  053%=      5-min Rain = 0
KTAS 162357Z 01019G25KT 13/04 A2999 RMK A01 T01310037  RH  053%=      5-min Rain = 0
KTAS 162358Z 01016KT 13/04 A2999 RMK A01 T01300035  RH  053%=      5-min Rain = 0
KTAS 162359Z 01019KT 13/04 A2999 RMK A01 T01290035  RH  053%=      5-min Rain = 0
KTAS 170000Z 01019KT 13/04 A2999 RMK A01 T01290035  RH  053%=      5-min Rain = 0
KTAS 170001Z 01020KT 13/04 A30 RMK A01 T01300035  RH  053%=      5-min Rain = 0
KTAS 170002Z 01020KT 13/03 A30 RMK A01 T01290034  RH  052%=      5-min Rain = 0
KTAS 170003Z 02020KT 13/03 A30 RMK A01 T01280034  RH  053%=      5-min Rain = 0
KTAS 170004Z 01018KT 13/03 A30 RMK A01 T01270034  RH  053%=      5-min Rain = 0
KTAS 170005Z 01019KT 13/03 A30 RMK A01 T01260034  RH  053%=      5-min Rain = 0
KTAS 170006Z 01019KT 13/03 A30 RMK A01 T01260033  RH  053%=      5-min Rain = 0
KTAS 170007Z 01018G23KT 13/03 A30 RMK A01 T01250032  RH  053%=      5-min Rain = 0
KTAS 170008Z 01018KT 13/03 A30 RMK A01 T01250031  RH  053%=      5-min Rain = 0
KTAS 170009Z 01019KT 12/03 A30 RMK A01 T01240031  RH  053%=      5-min Rain = 0
KTAS 170010Z 01019KT 12/03 A30 RMK A01 T01240031  RH  053%=      5-min Rain = 0
KTAS 170011Z 01015KT 12/03 A30 RMK A01 T01240032  RH  053%=      5-min Rain = 0
KTAS 170012Z 02018KT 12/03 A30 RMK A01 T01240031  RH  053%=      5-min Rain = 0
KTAS 170013Z 01020KT 12/03 A30 RMK A01 T01230030  RH  053%=      5-min Rain = 0
KTAS 170014Z 01018KT 12/03 A30 RMK A01 T01220029  RH  053%=      5-min Rain = 0
KTAS 170015Z 01018KT 12/03 A30 RMK A01 T01220029  RH  053%=      5-min Rain = 0
KTAS 170016Z 02018KT 12/03 A30 RMK A01 T01220029  RH  053%=      5-min Rain = 0
KTAS 170017Z 01018KT 12/03 A30 RMK A01 T01220029  RH  053%=      5-min Rain = 0
KTAS 170018Z 02018KT 12/03 A30 RMK A01 T01210029  RH  053%=      5-min Rain = 0
KTAS 170019Z 02016KT 12/03 A30 RMK A01 T01220031  RH  054%=      5-min Rain = 0
KTAS 170020Z 02020KT 12/03 A30 RMK A01 T01220032  RH  054%=      5-min Rain = 0
KTAS 170021Z 02020KT 12/03 A30 RMK A01 T01210030  RH  054%=      5-min Rain = 0
KTAS 170022Z 03019KT 12/03 A30 RMK A01 T01210030  RH  054%=      5-min Rain = 0
KTAS 170023Z 02021KT 12/03 A30 RMK A01 T01210029  RH  053%=      5-min Rain = 0
KTAS 170024Z 01016KT 12/03 A30 RMK A01 T01220031  RH  054%=      5-min Rain = 0
KTAS 170025Z 01018KT 12/03 A30 RMK A01 T01220030  RH  053%=      5-min Rain = 0
KTAS 170026Z 02018G23KT 12/03 A30 RMK A01 T01220029  RH  053%=      5-min Rain = 0
KTAS 170027Z 02018KT 12/03 A30 RMK A01 T01230029  RH  053%=      5-min Rain = 0
KTAS 170028Z 02017G23KT 12/03 A30 RMK A01 T01230029  RH  053%=      5-min Rain = 0
KTAS 170029Z 02017KT 12/03 A30 RMK A01 T01230028  RH  052%=      5-min Rain = 0
KTAS 170030Z 02018KT 12/03 A30 RMK A01 T01240029  RH  052%=      5-min Rain = 0
KTAS 170031Z 02019KT 12/03 A2999 RMK A01 T01230027  RH  052%=      5-min Rain = 0
KTAS 170032Z 03019KT 12/03 A2999 RMK A01 T01230028  RH  052%=      5-min Rain = 0
KTAS 170033Z 02018KT 12/03 A2999 RMK A01 T01230028  RH  052%=      5-min Rain = 0
KTAS 170034Z 03018KT 12/03 A30 RMK A01 T01220028  RH  052%=      5-min Rain = 0
KTAS 170035Z 02017KT 12/03 A30 RMK A01 T01220028  RH  053%=      5-min Rain = 0
KTAS 170036Z 01018KT 12/03 A30 RMK A01 T01200027  RH  053%=      5-min Rain = 0
KTAS 170037Z 01018KT 12/03 A30 RMK A01 T01190026  RH  053%=      5-min Rain = 0
KTAS 170038Z 01019KT 12/03 A30 RMK A01 T01170026  RH  053%=      5-min Rain = 0
KTAS 170039Z 01019KT 12/03 A30 RMK A01 T01160025  RH  054%=      5-min Rain = 0
KTAS 170040Z 01020KT 12/03 A30 RMK A01 T01150025  RH  054%=      5-min Rain = 0
KTAS 170041Z 02019G24KT 12/03 A30 RMK A01 T01150026  RH  054%=      5-min Rain = 0
KTAS 170042Z 02021KT 12/03 A30 RMK A01 T01150027  RH  055%=      5-min Rain = 0
KTAS 170043Z 01017KT 11/03 A3001 RMK A01 T01140027  RH  055%=      5-min Rain = 0
KTAS 170044Z 02019KT 11/03 A3001 RMK A01 T01140028  RH  055%=      5-min Rain = 0
KTAS 170045Z 02021KT 11/03 A30 RMK A01 T01130027  RH  056%=      5-min Rain = 0
KTAS 170046Z 01018G25KT 11/03 A3001 RMK A01 T01120027  RH  056%=      5-min Rain = 0
KTAS 170047Z 01018KT 11/03 A3001 RMK A01 T01120027  RH  056%=      5-min Rain = 0
KTAS 170048Z 02019KT 11/03 A3001 RMK A01 T01120028  RH  056%=      5-min Rain = 0
KTAS 170049Z 02016KT 11/03 A3001 RMK A01 T01120028  RH  056%=      5-min Rain = 0
KTAS 170050Z 02018KT 11/03 A3002 RMK A01 T01120029  RH  057%=      5-min Rain = 0
KTAS 170051Z 02019KT 11/03 A3002 RMK A01 T01110028  RH  056%=      5-min Rain = 0
KTAS 170052Z 02019KT 11/03 A3002 RMK A01 T01100027  RH  056%=      5-min Rain = 0
KTAS 170053Z 01015KT 11/03 A3002 RMK A01 T01100027  RH  057%=      5-min Rain = 0
KTAS 170054Z 01019KT 11/03 A3002 RMK A01 T01090027  RH  057%=      5-min Rain = 0
KTAS 170055Z 02019KT 11/03 A3002 RMK A01 T01080026  RH  057%=      5-min Rain = 0
KTAS 170056Z 01018G23KT 11/03 A3002 RMK A01 T01080025  RH  057%=      5-min Rain = 0
KTAS 170057Z 02019KT 11/03 A3002 RMK A01 T01070025  RH  057%=      5-min Rain = 0
KTAS 170058Z 01019KT 11/02 A3002 RMK A01 T01060024  RH  057%=      5-min Rain = 0
KTAS 170059Z 01021KT 11/02 A3002 RMK A01 T01060024  RH  057%=      5-min Rain = 0
KTAS 170100Z 01022KT 11/02 A3002 RMK A01 T01050023  RH  057%=      5-min Rain = 0
KTAS 170101Z 02021KT 11/02 A3002 RMK A01 T01050022  RH  057%=      5-min Rain = 0
KTAS 170102Z 01020G25KT 10/02 A3002 RMK A01 T01040022  RH  057%=      5-min Rain = 0
KTAS 170103Z 01020KT 10/02 A3002 RMK A01 T01040022  RH  057%=      5-min Rain = 0
KTAS 170104Z 01020G26KT 10/02 A3002 RMK A01 T01030022  RH  057%=      5-min Rain = 0
KTAS 170105Z 01021G26KT 10/02 A3003 RMK A01 T01030022  RH  057%=      5-min Rain = 0
KTAS 170106Z 01019KT 10/02 A3003 RMK A01 T01020022  RH  058%=      5-min Rain = 0
KTAS 170107Z 01019KT 10/02 A3003 RMK A01 T01020022  RH  058%=      5-min Rain = 0
KTAS 170108Z 01020KT 10/02 A3003 RMK A01 T01010022  RH  058%=      5-min Rain = 0
KTAS 170109Z 01018KT 10/02 A3003 RMK A01 T01010022  RH  058%=      5-min Rain = 0
KTAS 170110Z 01017KT 10/02 A3003 RMK A01 T01000022  RH  058%=      5-min Rain = 0
KTAS 170111Z 02015KT 10/02 A3003 RMK A01 T01000023  RH  059%=      5-min Rain = 0
KTAS 170112Z 02018G23KT 10/02 A3003 RMK A01 T00990023  RH  059%=      5-min Rain = 0
KTAS 170113Z 02015G20KT 10/02 A3003 RMK A01 T00990023  RH  059%=      5-min Rain = 0
KTAS 170114Z 02017KT 10/02 A3003 RMK A01 T00980023  RH  059%=      5-min Rain = 0
KTAS 170115Z 02015KT 10/02 A3003 RMK A01 T00980023  RH  060%=      5-min Rain = 0
KTAS 170116Z 02018KT 10/02 A3003 RMK A01 T00970022  RH  060%=      5-min Rain = 0
KTAS 170117Z 01020KT 10/02 A3003 RMK A01 T00960022  RH  060%=      5-min Rain = 0
KTAS 170118Z 01021KT 10/02 A3003 RMK A01 T00960021  RH  060%=      5-min Rain = 0
KTAS 170119Z 01019KT 10/02 A3003 RMK A01 T00950021  RH  060%=      5-min Rain = 0
KTAS 170120Z 01022KT 10/02 A3003 RMK A01 T00950021  RH  060%=      5-min Rain = 0
KTAS 170121Z 01021KT 09/02 A3003 RMK A01 T00940021  RH  060%=      5-min Rain = 0
KTAS 170122Z 01020KT 09/02 A3004 RMK A01 T00940021  RH  060%=      5-min Rain = 0
KTAS 170123Z 01019KT 09/02 A3004 RMK A01 T00930021  RH  061%=      5-min Rain = 0
KTAS 170124Z 02019KT 09/02 A3004 RMK A01 T00930021  RH  061%=      5-min Rain = 0
KTAS 170125Z 01019G24KT 09/02 A3004 RMK A01 T00920021  RH  061%=      5-min Rain = 0
KTAS 170126Z 01021KT 09/02 A3004 RMK A01 T00920021  RH  061%=      5-min Rain = 0
KTAS 170127Z 01019KT 09/02 A3004 RMK A01 T00910020  RH  061%=      5-min Rain = 0
KTAS 170128Z 01021KT 09/02 A3004 RMK A01 T00910020  RH  061%=      5-min Rain = 0
KTAS 170129Z 02018G23KT 09/02 A3004 RMK A01 T00900020  RH  061%=      5-min Rain = 0
KTAS 170130Z 01020KT 09/02 A3004 RMK A01 T00900020  RH  062%=      5-min Rain = 0
KTAS 170131Z 02017KT 09/02 A3004 RMK A01 T00890020  RH  062%=      5-min Rain = 0
KTAS 170132Z 02017G22KT 09/02 A3004 RMK A01 T00890020  RH  062%=      5-min Rain = 0
KTAS 170133Z 01017G22KT 09/02 A3004 RMK A01 T00890020  RH  062%=      5-min Rain = 0
KTAS 170134Z 01018KT 09/02 A3004 RMK A01 T00880020  RH  062%=      5-min Rain = 0
KTAS 170135Z 01018G23KT 09/02 A3004 RMK A01 T00880020  RH  062%=      5-min Rain = 0
KTAS 170136Z 02020KT 09/02 A3004 RMK A01 T00880020  RH  062%=      5-min Rain = 0
KTAS 170137Z 02016G22KT 09/02 A3004 RMK A01 T00870020  RH  063%=      5-min Rain = 0
KTAS 170138Z 02017KT 09/02 A3004 RMK A01 T00870019  RH  063%=      5-min Rain = 0
KTAS 170139Z 01017KT 09/02 A3005 RMK A01 T00860018  RH  062%=      5-min Rain = 0
KTAS 170140Z 01019KT 09/02 A3005 RMK A01 T00860018  RH  062%=      5-min Rain = 0
KTAS 170141Z 01019KT 09/02 A3005 RMK A01 T00850018  RH  062%=      5-min Rain = 0
KTAS 170142Z 01017KT 09/02 A3004 RMK A01 T00850018  RH  062%=      5-min Rain = 0
KTAS 170143Z 02017KT 09/02 A3004 RMK A01 T00850018  RH  063%=      5-min Rain = 0
KTAS 170144Z 01019KT 09/02 A3004 RMK A01 T00850018  RH  063%=      5-min Rain = 0
KTAS 170145Z 02017KT 09/02 A3004 RMK A01 T00850017  RH  063%=      5-min Rain = 0
KTAS 170146Z 01017KT 08/02 A3005 RMK A01 T00840018  RH  063%=      5-min Rain = 0
KTAS 170147Z 01020G25KT 08/02 A3005 RMK A01 T00840017  RH  063%=      5-min Rain = 0
KTAS 170148Z 01018KT 08/02 A3005 RMK A01 T00840017  RH  063%=      5-min Rain = 0
KTAS 170149Z 01016KT 08/02 A3005 RMK A01 T00840017  RH  063%=      5-min Rain = 0
KTAS 170150Z 02019KT 08/02 A3004 RMK A01 T00840018  RH  063%=      5-min Rain = 0
KTAS 170151Z 02017G22KT 08/02 A3005 RMK A01 T00840018  RH  063%=      5-min Rain = 0
KTAS 170152Z 02020KT 08/02 A3005 RMK A01 T00840018  RH  063%=      5-min Rain = 0
KTAS 170153Z 02019G24KT 08/02 A3005 RMK A01 T00830016  RH  063%=      5-min Rain = 0
KTAS 170154Z 02016KT 08/02 A3005 RMK A01 T00830016  RH  062%=      5-min Rain = 0
KTAS 170155Z 02020G25KT 08/02 A3005 RMK A01 T00830016  RH  063%=      5-min Rain = 0
KTAS 170156Z 02019KT 08/02 A3005 RMK A01 T00830015  RH  062%=      5-min Rain = 0
KTAS 170157Z 02018G24KT 08/02 A3005 RMK A01 T00830016  RH  063%=      5-min Rain = 0
KTAS 170158Z 02018G23KT 08/02 A3005 RMK A01 T00830016  RH  063%=      5-min Rain = 0
KTAS 170159Z 02018KT 08/02 A3006 RMK A01 T00830016  RH  063%=      5-min Rain = 0
KTAS 170200Z 02020KT 08/02 A3005 RMK A01 T00830016  RH  063%=      5-min Rain = 0
KTAS 170201Z 02017KT 08/02 A3005 RMK A01 T00820016  RH  063%=      5-min Rain = 0
KTAS 170202Z 02019KT 08/02 A3005 RMK A01 T00820016  RH  063%=      5-min Rain = 0
KTAS 170203Z 02018KT 08/02 A3005 RMK A01 T00820016  RH  063%=      5-min Rain = 0
KTAS 170204Z 02017KT 08/02 A3005 RMK A01 T00820017  RH  063%=      5-min Rain = 0
KTAS 170205Z 03018G24KT 08/02 A3006 RMK A01 T00820017  RH  064%=      5-min Rain = 0
KTAS 170206Z 03018KT 08/02 A3006 RMK A01 T00810017  RH  064%=      5-min Rain = 0
KTAS 170207Z 02016KT 08/02 A3006 RMK A01 T00810018  RH  064%=      5-min Rain = 0
KTAS 170208Z 02016KT 08/02 A3006 RMK A01 T00810018  RH  064%=      5-min Rain = 0
KTAS 170209Z 02013KT 08/02 A3006 RMK A01 T00800018  RH  065%=      5-min Rain = 0
KTAS 170210Z 02015KT 08/02 A3006 RMK A01 T00800018  RH  065%=      5-min Rain = 0
KTAS 170211Z 02020KT 08/02 A3006 RMK A01 T00800017  RH  065%=      5-min Rain = 0
KTAS 170212Z 02015KT 08/02 A3006 RMK A01 T00790016  RH  064%=      5-min Rain = 0
KTAS 170213Z 02018KT 08/02 A3006 RMK A01 T00790016  RH  064%=      5-min Rain = 0
KTAS 170214Z 02018KT 08/02 A3007 RMK A01 T00780015  RH  064%=      5-min Rain = 0
KTAS 170215Z 02016G21KT 08/01 A3007 RMK A01 T00780014  RH  064%=      5-min Rain = 0
KTAS 170216Z 02019KT 08/01 A3007 RMK A01 T00780014  RH  064%=      5-min Rain = 0
KTAS 170217Z 02018KT 08/01 A3007 RMK A01 T00770013  RH  064%=      5-min Rain = 0
KTAS 170218Z 02018KT 08/01 A3007 RMK A01 T00770013  RH  064%=      5-min Rain = 0
KTAS 170219Z 02019KT 08/01 A3007 RMK A01 T00770013  RH  064%=      5-min Rain = 0
KTAS 170220Z 02018KT 08/01 A3008 RMK A01 T00770013  RH  064%=      5-min Rain = 0
KTAS 170221Z 02018KT 08/01 A3008 RMK A01 T00770013  RH  064%=      5-min Rain = 0
KTAS 170222Z 02017KT 08/01 A3008 RMK A01 T00770013  RH  064%=      5-min Rain = 0
KTAS 170223Z 02018KT 08/01 A3008 RMK A01 T00770013  RH  064%=      5-min Rain = 0
KTAS 170224Z 02018KT 08/01 A3008 RMK A01 T00770014  RH  064%=      5-min Rain = 0
KTAS 170225Z 02018KT 08/01 A3008 RMK A01 T00770014  RH  064%=      5-min Rain = 0
KTAS 170226Z 02015KT 08/02 A3008 RMK A01 T00770015  RH  065%=      5-min Rain = 0
KTAS 170227Z 02014KT 08/02 A3008 RMK A01 T00760015  RH  065%=      5-min Rain = 0
KTAS 170228Z 01015KT 08/02 A3008 RMK A01 T00760015  RH  065%=      5-min Rain = 0
KTAS 170229Z 01016KT 08/02 A3008 RMK A01 T00760015  RH  065%=      5-min Rain = 0
KTAS 170230Z 01017KT 08/01 A3008 RMK A01 T00760014  RH  065%=      5-min Rain = 0
KTAS 170231Z 01017KT 08/01 A3008 RMK A01 T00760014  RH  065%=      5-min Rain = 0
KTAS 170232Z 01019G24KT 08/01 A3008 RMK A01 T00760014  RH  065%=      5-min Rain = 0
KTAS 170233Z 02019KT 08/01 A3008 RMK A01 T00760014  RH  065%=      5-min Rain = 0
KTAS 170234Z 02019KT 08/01 A3008 RMK A01 T00750013  RH  065%=      5-min Rain = 0
KTAS 170235Z 02017KT 08/01 A3008 RMK A01 T00750014  RH  065%=      5-min Rain = 0
KTAS 170236Z 02014KT 08/01 A3008 RMK A01 T00750014  RH  065%=      5-min Rain = 0
KTAS 170237Z 02017KT 08/02 A3008 RMK A01 T00750015  RH  066%=      5-min Rain = 0
KTAS 170238Z 02015KT 08/01 A3009 RMK A01 T00750014  RH  066%=      5-min Rain = 0
KTAS 170239Z 03016KT 08/02 A3009 RMK A01 T00750015  RH  066%=      5-min Rain = 0
KTAS 170240Z 02014KT 07/01 A3009 RMK A01 T00740014  RH  066%=      5-min Rain = 0
KTAS 170241Z 02015KT 07/01 A3009 RMK A01 T00740014  RH  066%=      5-min Rain = 0
KTAS 170242Z 02013G18KT 07/01 A3009 RMK A01 T00730014  RH  066%=      5-min Rain = 0
KTAS 170243Z 02017KT 07/01 A3009 RMK A01 T00730014  RH  066%=      5-min Rain = 0
KTAS 170244Z 02019KT 07/01 A3009 RMK A01 T00730014  RH  066%=      5-min Rain = 0
KTAS 170245Z 02019KT 07/01 A3009 RMK A01 T00740013  RH  065%=      5-min Rain = 0
KTAS 170246Z 02017KT 07/01 A3009 RMK A01 T00740013  RH  065%=      5-min Rain = 0
KTAS 170247Z 02017KT 07/01 A3009 RMK A01 T00730013  RH  065%=      5-min Rain = 0
KTAS 170248Z 02015KT 07/01 A3009 RMK A01 T00730014  RH  066%=      5-min Rain = 0
KTAS 170249Z 01015KT 07/01 A3009 RMK A01 T00730014  RH  066%=      5-min Rain = 0
KTAS 170250Z 02014KT 07/01 A3009 RMK A01 T00730014  RH  066%=      5-min Rain = 0
KTAS 170251Z 02016KT 07/01 A3009 RMK A01 T00730014  RH  066%=      5-min Rain = 0
KTAS 170252Z 02017KT 07/01 A3009 RMK A01 T00730014  RH  066%=      5-min Rain = 0
KTAS 170253Z 02014KT 07/01 A3009 RMK A01 T00730014  RH  066%=      5-min Rain = 0
KTAS 170254Z 02013KT 07/01 A3009 RMK A01 T00730014  RH  066%=      5-min Rain = 0
KTAS 170255Z 02018KT 07/02 A3009 RMK A01 T00730015  RH  067%=      5-min Rain = 0
KTAS 170256Z 02016KT 07/02 A3009 RMK A01 T00730015  RH  066%=      5-min Rain = 0
KTAS 170257Z 02015KT 07/02 A3009 RMK A01 T00730015  RH  066%=      5-min Rain = 0
KTAS 170258Z 02013KT 07/02 A3009 RMK A01 T00730015  RH  067%=      5-min Rain = 0
KTAS 170259Z 02013G19KT 07/02 A301 RMK A01 T00720015  RH  067%=      5-min Rain = 0
KTAS 170300Z 02017KT 07/02 A301 RMK A01 T00720015  RH  067%=      5-min Rain = 0
KTAS 170301Z 02014KT 07/02 A301 RMK A01 T00720015  RH  067%=      5-min Rain = 0
KTAS 170302Z 01015KT 07/02 A301 RMK A01 T00720015  RH  067%=      5-min Rain = 0
KTAS 170303Z 01017KT 07/02 A301 RMK A01 T00720015  RH  067%=      5-min Rain = 0
KTAS 170304Z 02015G20KT 07/02 A301 RMK A01 T00720016  RH  067%=      5-min Rain = 0
KTAS 170305Z 02017KT 07/02 A301 RMK A01 T00710015  RH  067%=      5-min Rain = 0
KTAS 170306Z 01019G24KT 07/02 A3009 RMK A01 T00710015  RH  067%=      5-min Rain = 0
KTAS 170307Z 02018KT 07/01 A3009 RMK A01 T00710014  RH  067%=      5-min Rain = 0
KTAS 170308Z 02021KT 07/01 A3009 RMK A01 T00700014  RH  067%=      5-min Rain = 0
KTAS 170309Z 02023G29KT 07/01 A3009 RMK A01 T00700013  RH  067%=      5-min Rain = 0
KTAS 170310Z 02022KT 07/01 A3009 RMK A01 T00700012  RH  067%=      5-min Rain = 0
KTAS 170311Z 02020G25KT 07/01 A301 RMK A01 T00690012  RH  067%=      5-min Rain = 0
KTAS 170312Z 02019G25KT 07/01 A301 RMK A01 T00690012  RH  067%=      5-min Rain = 0
KTAS 170313Z 02021G26KT 07/01 A301 RMK A01 T00680011  RH  067%=      5-min Rain = 0
KTAS 170314Z 02019KT 07/01 A301 RMK A01 T00680010  RH  067%=      5-min Rain = 0
KTAS 170315Z 02021KT 07/01 A301 RMK A01 T00670010  RH  067%=      5-min Rain = 0
KTAS 170316Z 02020KT 07/01 A301 RMK A01 T00670009  RH  067%=      5-min Rain = 0
KTAS 170317Z 02020G25KT 07/01 A301 RMK A01 T00670009  RH  067%=      5-min Rain = 0
KTAS 170318Z 02020KT 07/01 A301 RMK A01 T00660009  RH  067%=      5-min Rain = 0
KTAS 170319Z 02020G27KT 07/01 A3011 RMK A01 T00660008  RH  067%=      5-min Rain = 0
KTAS 170320Z 02021KT 07/01 A3011 RMK A01 T00660008  RH  066%=      5-min Rain = 0
KTAS 170321Z 02019KT 07/01 A3011 RMK A01 T00660008  RH  066%=      5-min Rain = 0
KTAS 170322Z 02016KT 07/01 A3011 RMK A01 T00660008  RH  066%=      5-min Rain = 0
KTAS 170323Z 02019KT 07/01 A3012 RMK A01 T00660008  RH  066%=      5-min Rain = 0
KTAS 170324Z 02019KT 07/01 A3011 RMK A01 T00660008  RH  066%=      5-min Rain = 0
KTAS 170325Z 02015KT 07/01 A3012 RMK A01 T00650008  RH  067%=      5-min Rain = 0
KTAS 170326Z 01016KT 07/01 A3012 RMK A01 T00650008  RH  067%=      5-min Rain = 0
KTAS 170327Z 02015KT 07/01 A3012 RMK A01 T00650008  RH  067%=      5-min Rain = 0
KTAS 170328Z 02015G21KT 07/01 A3012 RMK A01 T00650008  RH  067%=      5-min Rain = 0
KTAS 170329Z 02017KT 06/01 A3012 RMK A01 T00640008  RH  067%=      5-min Rain = 0
KTAS 170330Z 02019KT 07/01 A3012 RMK A01 T00650009  RH  067%=      5-min Rain = 0
KTAS 170331Z 02018KT 07/01 A3012 RMK A01 T00650008  RH  067%=      5-min Rain = 0
KTAS 170332Z 02017KT 07/01 A3011 RMK A01 T00650008  RH  067%=      5-min Rain = 0
KTAS 170333Z 02016KT 06/01 A3011 RMK A01 T00640009  RH  068%=      5-min Rain = 0
KTAS 170334Z 02017G22KT 06/01 A3011 RMK A01 T00640009  RH  068%=      5-min Rain = 0
KTAS 170335Z 02018KT 06/01 A3011 RMK A01 T00640009  RH  068%=      5-min Rain = 0
KTAS 170336Z 02018KT 06/01 A3011 RMK A01 T00640009  RH  068%=      5-min Rain = 0
KTAS 170337Z 02015KT 06/01 A3012 RMK A01 T00640009  RH  068%=      5-min Rain = 0
KTAS 170338Z 01016G21KT 06/01 A3012 RMK A01 T00640009  RH  068%=      5-min Rain = 0
KTAS 170339Z 02017G22KT 06/01 A3012 RMK A01 T00640010  RH  068%=      5-min Rain = 0
KTAS 170340Z 01016KT 06/01 A3012 RMK A01 T00640009  RH  068%=      5-min Rain = 0
KTAS 170341Z 01018KT 06/01 A3012 RMK A01 T00640009  RH  068%=      5-min Rain = 0
KTAS 170342Z 02015KT 06/01 A3011 RMK A01 T00640009  RH  068%=      5-min Rain = 0
KTAS 170343Z 01016KT 06/01 A3011 RMK A01 T00640010  RH  068%=      5-min Rain = 0
KTAS 170344Z 01017KT 06/01 A3011 RMK A01 T00640010  RH  068%=      5-min Rain = 0
KTAS 170345Z 01016KT 06/01 A3011 RMK A01 T00640010  RH  069%=      5-min Rain = 0
KTAS 170346Z 01018G24KT 06/01 A3011 RMK A01 T00640010  RH  069%=      5-min Rain = 0
KTAS 170347Z 02020KT 06/01 A3011 RMK A01 T00640010  RH  068%=      5-min Rain = 0
KTAS 170348Z 01016KT 06/01 A3011 RMK A01 T00640010  RH  069%=      5-min Rain = 0
KTAS 170349Z 01017KT 06/01 A3011 RMK A01 T00640010  RH  069%=      5-min Rain = 0
KTAS 170350Z 01016KT 06/01 A3011 RMK A01 T00630011  RH  069%=      5-min Rain = 0
KTAS 170351Z 02016KT 06/01 A3011 RMK A01 T00630011  RH  069%=      5-min Rain = 0
KTAS 170352Z 02016KT 06/01 A3011 RMK A01 T00630011  RH  069%=      5-min Rain = 0
KTAS 170353Z 02016KT 06/01 A3011 RMK A01 T00630011  RH  069%=      5-min Rain = 0
KTAS 170354Z 02018KT 06/01 A3011 RMK A01 T00630011  RH  069%=      5-min Rain = 0
KTAS 170355Z 02016KT 06/01 A3011 RMK A01 T00630011  RH  069%=      5-min Rain = 0
KTAS 170356Z 02016KT 06/01 A3011 RMK A01 T00630011  RH  069%=      5-min Rain = 0
KTAS 170357Z 02017KT 06/01 A3011 RMK A01 T00630010  RH  069%=      5-min Rain = 0
KTAS 170358Z 02016KT 06/01 A3011 RMK A01 T00630011  RH  069%=      5-min Rain = 0
KTAS 170359Z 02015G21KT 06/01 A3011 RMK A01 T00630011  RH  069%=      5-min Rain = 0
KTAS 170400Z 02018KT 06/01 A3011 RMK A01 T00630010  RH  069%=      5-min Rain = 0
KTAS 170401Z 02016KT 06/01 A3011 RMK A01 T00630010  RH  069%=      5-min Rain = 0
KTAS 170402Z 02017G22KT 06/01 A3011 RMK A01 T00630010  RH  069%=      5-min Rain = 0
KTAS 170403Z 02017KT 06/01 A3011 RMK A01 T00630010  RH  069%=      5-min Rain = 0
KTAS 170404Z 02015KT 06/01 A3012 RMK A01 T00630010  RH  069%=      5-min Rain = 0
KTAS 170405Z 02016KT 06/01 A3011 RMK A01 T00620010  RH  069%=      5-min Rain = 0
KTAS 170406Z 02014KT 06/01 A3012 RMK A01 T00620010  RH  069%=      5-min Rain = 0
KTAS 170407Z 02014KT 06/01 A3011 RMK A01 T00620010  RH  069%=      5-min Rain = 0
KTAS 170408Z 02014KT 06/01 A3011 RMK A01 T00610010  RH  070%=      5-min Rain = 0
KTAS 170409Z 02015KT 06/01 A3011 RMK A01 T00610010  RH  070%=      5-min Rain = 0
KTAS 170410Z 02016G21KT 06/01 A3011 RMK A01 T00610010  RH  070%=      5-min Rain = 0
KTAS 170411Z 02017KT 06/01 A3012 RMK A01 T00610010  RH  070%=      5-min Rain = 0
KTAS 170412Z 02017KT 06/01 A3012 RMK A01 T00620010  RH  070%=      5-min Rain = 0
KTAS 170413Z 01016KT 06/01 A3012 RMK A01 T00620010  RH  069%=      5-min Rain = 0
KTAS 170414Z 01015KT 06/01 A3012 RMK A01 T00620010  RH  069%=      5-min Rain = 0
KTAS 170415Z 01015KT 06/01 A3012 RMK A01 T00620010  RH  070%=      5-min Rain = 0
KTAS 170416Z 02015KT 06/01 A3012 RMK A01 T00620010  RH  070%=      5-min Rain = 0
KTAS 170417Z 02015KT 06/01 A3012 RMK A01 T00620010  RH  070%=      5-min Rain = 0
KTAS 170418Z 02015KT 06/01 A3012 RMK A01 T00620010  RH  070%=      5-min Rain = 0
KTAS 170419Z 01016KT 06/01 A3012 RMK A01 T00620011  RH  070%=      5-min Rain = 0
KTAS 170420Z 02018KT 06/01 A3012 RMK A01 T00620010  RH  070%=      5-min Rain = 0
KTAS 170421Z 02017KT 06/01 A3012 RMK A01 T00620010  RH  070%=      5-min Rain = 0
KTAS 170422Z 02017KT 06/01 A3012 RMK A01 T00620010  RH  070%=      5-min Rain = 0
KTAS 170423Z 02016KT 06/01 A3012 RMK A01 T00620010  RH  070%=      5-min Rain = 0
KTAS 170424Z 02018KT 06/01 A3012 RMK A01 T00620010  RH  070%=      5-min Rain = 0
KTAS 170425Z 02018G23KT 06/01 A3011 RMK A01 T00620009  RH  069%=      5-min Rain = 0
KTAS 170426Z 02020KT 06/01 A3011 RMK A01 T00620009  RH  069%=      5-min Rain = 0
KTAS 170427Z 02022KT 06/01 A3011 RMK A01 T00620008  RH  069%=      5-min Rain = 0
KTAS 170428Z 02017KT 06/01 A3011 RMK A01 T00620008  RH  068%=      5-min Rain = 0
KTAS 170429Z 02017G23KT 06/01 A3011 RMK A01 T00620009  RH  069%=      5-min Rain = 0
KTAS 170430Z 02019KT 06/01 A3011 RMK A01 T00620008  RH  069%=      5-min Rain = 0
KTAS 170431Z 02017KT 06/01 A3011 RMK A01 T00610008  RH  069%=      5-min Rain = 0
KTAS 170432Z 02018KT 06/01 A3011 RMK A01 T00610008  RH  069%=      5-min Rain = 0
KTAS 170433Z 02018KT 06/01 A3011 RMK A01 T00610008  RH  069%=      5-min Rain = 0
KTAS 170434Z 02019KT 06/01 A3011 RMK A01 T00610008  RH  069%=      5-min Rain = 0
KTAS 170435Z 02019KT 06/01 A3011 RMK A01 T00610008  RH  069%=      5-min Rain = 0
KTAS 170436Z 02016KT 06/01 A3011 RMK A01 T00610008  RH  069%=      5-min Rain = 0
KTAS 170437Z 02017KT 06/01 A3011 RMK A01 T00610008  RH  069%=      5-min Rain = 0
KTAS 170438Z 02020KT 06/01 A3011 RMK A01 T00610008  RH  069%=      5-min Rain = 0
KTAS 170439Z 02016G22KT 06/01 A3011 RMK A01 T00610008  RH  069%=      5-min Rain = 0
KTAS 170440Z 02016KT 06/01 A3011 RMK A01 T00610008  RH  069%=      5-min Rain = 0
KTAS 170441Z 02016KT 06/01 A3011 RMK A01 T00600009  RH  069%=      5-min Rain = 0
KTAS 170442Z 02018KT 06/01 A3011 RMK A01 T00600008  RH  069%=      5-min Rain = 0
KTAS 170443Z 02019KT 06/01 A3011 RMK A01 T00600006  RH  068%=      5-min Rain = 0
KTAS 170444Z 02024KT 06/00 A3011 RMK A01 T00600004  RH  067%=      5-min Rain = 0
KTAS 170445Z 02019KT 06/00 A3011 RMK A01 T00610002  RH  066%=      5-min Rain = 0
KTAS 170446Z 02020KT 06/00 A3011 RMK A01 T00600002  RH  066%=      5-min Rain = 0
KTAS 170447Z 02020G25KT 06/00 A3011 RMK A01 T00600001  RH  066%=      5-min Rain = 0
KTAS 170448Z 02017KT 06/00 A3011 RMK A01 T00600001  RH  066%=      5-min Rain = 0
KTAS 170449Z 03019KT 06/00 A3011 RMK A01 T00600001  RH  066%=      5-min Rain = 0
KTAS 170450Z 02020KT 06/00 A3011 RMK A01 T00600001  RH  066%=      5-min Rain = 0
KTAS 170451Z 02016G21KT 06/00 A3012 RMK A01 T00600001  RH  066%=      5-min Rain = 0
KTAS 170452Z 02018G24KT 06/00 A3012 RMK A01 T00600001  RH  066%=      5-min Rain = 0
KTAS 170453Z 02017KT 06/00 A3011 RMK A01 T00600001  RH  066%=      5-min Rain = 0
KTAS 170454Z 03015G20KT 06/00 A3012 RMK A01 T00600001  RH  066%=      5-min Rain = 0
KTAS 170455Z 02021KT 06/00 A3012 RMK A01 T00590000  RH  066%=      5-min Rain = 0
KTAS 170456Z 02018KT 06/00 A3012 RMK A01 T00600000  RH  066%=      5-min Rain = 0
KTAS 170457Z 03019KT 06/00 A3012 RMK A01 T00590000  RH  066%=      5-min Rain = 0
KTAS 170458Z 03016KT 06/00 A3012 RMK A01 T00590000  RH  066%=      5-min Rain = 0
KTAS 170459Z 03018KT 06/00 A3012 RMK A01 T00590001  RH  066%=      5-min Rain = 0

Page generated in 0.0653 seconds.